<?xml version='1.0' encoding='UTF-8'?><gpx version="1.1" creator="JPX - https://github.com/jenetics/jpx" xmlns="http://www.topografix.com/GPX/1/1"><trk><trkseg><trkpt lat="44.820373596615156" lon="9.195433388114383"><ele>401.0</ele><time>2026-04-19T17:26:10.999Z</time></trkpt><trkpt lat="44.820307172958394" lon="9.195552706548723"><ele>401.0</ele><time>2026-04-19T17:26:12.999Z</time></trkpt><trkpt lat="44.820303134587185" lon="9.195710824334476"><ele>401.0</ele><time>2026-04-19T17:26:13.999Z</time></trkpt><trkpt lat="44.82029816206827" lon="9.195851021347156"><ele>401.0</ele><time>2026-04-19T17:26:14.999Z</time></trkpt><trkpt lat="44.820254157392505" lon="9.195984284268144"><ele>401.0</ele><time>2026-04-19T17:26:15.999Z</time></trkpt><trkpt lat="44.82023961613857" lon="9.196146634109759"><ele>401.20000000000005</ele><time>2026-04-19T17:26:16.999Z</time></trkpt><trkpt lat="44.82022570030757" lon="9.196302001231794"><ele>401.40000000000003</ele><time>2026-04-19T17:26:17.999Z</time></trkpt><trkpt lat="44.820207488855544" lon="9.196465185663177"><ele>401.6</ele><time>2026-04-19T17:26:18.999Z</time></trkpt><trkpt lat="44.82019401856999" lon="9.196581425773662"><ele>401.8</ele><time>2026-04-19T17:26:19.999Z</time></trkpt><trkpt lat="44.820167685994065" lon="9.19669981240251"><ele>402.0</ele><time>2026-04-19T17:26:20.999Z</time></trkpt><trkpt lat="44.82011629247858" lon="9.196819577782248"><ele>405.5</ele><time>2026-04-19T17:26:21.999Z</time></trkpt><trkpt lat="44.82004576094594" lon="9.196946731064749"><ele>409.0</ele><time>2026-04-19T17:26:22.999Z</time></trkpt><trkpt lat="44.81997542268013" lon="9.197105832804892"><ele>412.5</ele><time>2026-04-19T17:26:23.999Z</time></trkpt><trkpt lat="44.819892363491576" lon="9.197219963763644"><ele>416.0</ele><time>2026-04-19T17:26:24.999Z</time></trkpt><trkpt lat="44.819826090735404" lon="9.19732183334397"><ele>416.20000000000005</ele><time>2026-04-19T17:26:25.999Z</time></trkpt><trkpt lat="44.81975518875489" lon="9.197401764145885"><ele>416.40000000000003</ele><time>2026-04-19T17:26:26.999Z</time></trkpt><trkpt lat="44.81968202723554" lon="9.197453625874438"><ele>416.6</ele><time>2026-04-19T17:26:27.999Z</time></trkpt><trkpt lat="44.8195917459105" lon="9.197507321016968"><ele>416.8</ele><time>2026-04-19T17:26:28.999Z</time></trkpt><trkpt lat="44.81947844984875" lon="9.19755802734396"><ele>417.0</ele><time>2026-04-19T17:26:29.999Z</time></trkpt><trkpt lat="44.81935491603927" lon="9.197617687906616"><ele>419.0</ele><time>2026-04-19T17:26:30.999Z</time></trkpt><trkpt lat="44.819241701839914" lon="9.197678621254958"><ele>421.0</ele><time>2026-04-19T17:26:31.999Z</time></trkpt><trkpt lat="44.81913393686163" lon="9.197758430494819"><ele>423.0</ele><time>2026-04-19T17:26:32.999Z</time></trkpt><trkpt lat="44.819052171947824" lon="9.19787138356808"><ele>425.0</ele><time>2026-04-19T17:26:33.999Z</time></trkpt><trkpt lat="44.81897583081852" lon="9.198001812726266"><ele>423.5</ele><time>2026-04-19T17:26:34.999Z</time></trkpt><trkpt lat="44.81890926492325" lon="9.198180191029403"><ele>422.0</ele><time>2026-04-19T17:26:35.999Z</time></trkpt><trkpt lat="44.81880773472981" lon="9.1983400567748"><ele>420.5</ele><time>2026-04-19T17:26:36.999Z</time></trkpt><trkpt lat="44.81870098693295" lon="9.19848971200953"><ele>419.0</ele><time>2026-04-19T17:26:37.999Z</time></trkpt><trkpt lat="44.818610687013916" lon="9.198604403372522"><ele>419.0</ele><time>2026-04-19T17:26:38.999Z</time></trkpt><trkpt lat="44.81853640367157" lon="9.198717268032965"><ele>419.0</ele><time>2026-04-19T17:26:39.999Z</time></trkpt><trkpt lat="44.818440534127376" lon="9.198778713763277"><ele>419.0</ele><time>2026-04-19T17:26:40.999Z</time></trkpt><trkpt lat="44.81832100339937" lon="9.198794494280525"><ele>419.0</ele><time>2026-04-19T17:26:41.999Z</time></trkpt><trkpt lat="44.81818984150638" lon="9.198851595825955"><ele>422.75</ele><time>2026-04-19T17:26:42.999Z</time></trkpt><trkpt lat="44.81805840917072" lon="9.198907642811955"><ele>426.5</ele><time>2026-04-19T17:26:43.999Z</time></trkpt><trkpt lat="44.8179330781145" lon="9.199005419313648"><ele>430.25</ele><time>2026-04-19T17:26:44.999Z</time></trkpt><trkpt lat="44.81783681183152" lon="9.199104306437082"><ele>434.0</ele><time>2026-04-19T17:26:45.999Z</time></trkpt><trkpt lat="44.81773895344565" lon="9.199107601822524"><ele>436.79999999999995</ele><time>2026-04-19T17:26:46.999Z</time></trkpt><trkpt lat="44.81764831868777" lon="9.199125517971302"><ele>439.59999999999997</ele><time>2026-04-19T17:26:47.999Z</time></trkpt><trkpt lat="44.81757086406301" lon="9.19912654986626"><ele>442.4</ele><time>2026-04-19T17:26:48.999Z</time></trkpt><trkpt lat="44.81749532049569" lon="9.199019219276277"><ele>445.2</ele><time>2026-04-19T17:26:50.999Z</time></trkpt><trkpt lat="44.81756212085359" lon="9.198826946289314"><ele>448.0</ele><time>2026-04-19T17:26:52.999Z</time></trkpt><trkpt lat="44.817585483219375" lon="9.198710100977545"><ele>448.59999999999997</ele><time>2026-04-19T17:26:53.999Z</time></trkpt><trkpt lat="44.81762312417061" lon="9.198585953709864"><ele>449.19999999999993</ele><time>2026-04-19T17:26:54.999Z</time></trkpt><trkpt lat="44.81764380710573" lon="9.198427128260555"><ele>449.8</ele><time>2026-04-19T17:26:55.999Z</time></trkpt><trkpt lat="44.8176500235632" lon="9.198291638756233"><ele>450.4</ele><time>2026-04-19T17:26:56.999Z</time></trkpt><trkpt lat="44.81765843012557" lon="9.198175991407144"><ele>451.0</ele><time>2026-04-19T17:26:57.999Z</time></trkpt><trkpt lat="44.81768256770854" lon="9.19805808446113"><ele>449.8</ele><time>2026-04-19T17:26:58.999Z</time></trkpt><trkpt lat="44.81770298557859" lon="9.19794300517518"><ele>448.6</ele><time>2026-04-19T17:26:59.999Z</time></trkpt><trkpt lat="44.81771470242078" lon="9.197819555807271"><ele>447.4</ele><time>2026-04-19T17:27:00.999Z</time></trkpt><trkpt lat="44.817725868660155" lon="9.197688329327686"><ele>446.2</ele><time>2026-04-19T17:27:01.999Z</time></trkpt><trkpt lat="44.81773963022593" lon="9.197537328069943"><ele>445.0</ele><time>2026-04-19T17:27:02.999Z</time></trkpt><trkpt lat="44.81775556908873" lon="9.197374955024191"><ele>444.6</ele><time>2026-04-19T17:27:03.999Z</time></trkpt><trkpt lat="44.81776797364059" lon="9.19723880346053"><ele>444.2</ele><time>2026-04-19T17:27:04.999Z</time></trkpt><trkpt lat="44.817761237066826" lon="9.197137789932727"><ele>443.79999999999995</ele><time>2026-04-19T17:27:05.999Z</time></trkpt><trkpt lat="44.817727002938625" lon="9.197044267900388"><ele>443.4</ele><time>2026-04-19T17:27:06.999Z</time></trkpt><trkpt lat="44.81764245721992" lon="9.19697192803164"><ele>443.0</ele><time>2026-04-19T17:27:07.999Z</time></trkpt><trkpt lat="44.817520866880564" lon="9.19692766537513"><ele>446.75</ele><time>2026-04-19T17:27:08.999Z</time></trkpt><trkpt lat="44.8174018383367" lon="9.196887726803158"><ele>450.5</ele><time>2026-04-19T17:27:09.999Z</time></trkpt><trkpt lat="44.817266241138874" lon="9.196837148565123"><ele>454.25</ele><time>2026-04-19T17:27:10.999Z</time></trkpt><trkpt lat="44.8171329190146" lon="9.196813803560088"><ele>458.0</ele><time>2026-04-19T17:27:11.999Z</time></trkpt><trkpt lat="44.81699642251088" lon="9.196761644497936"><ele>458.0</ele><time>2026-04-19T17:27:12.999Z</time></trkpt><trkpt lat="44.8168731849551" lon="9.196686647931879"><ele>458.0</ele><time>2026-04-19T17:27:13.999Z</time></trkpt><trkpt lat="44.8167672027263" lon="9.196637460698312"><ele>458.0</ele><time>2026-04-19T17:27:14.999Z</time></trkpt><trkpt lat="44.8166600017153" lon="9.196616739427451"><ele>458.0</ele><time>2026-04-19T17:27:16Z</time></trkpt><trkpt lat="44.81655392592204" lon="9.196679008248093"><ele>460.79999999999995</ele><time>2026-04-19T17:27:18Z</time></trkpt><trkpt lat="44.816552142602" lon="9.196796112729015"><ele>463.59999999999997</ele><time>2026-04-19T17:27:19Z</time></trkpt><trkpt lat="44.81658862973559" lon="9.196925942075785"><ele>466.40000000000003</ele><time>2026-04-19T17:27:20Z</time></trkpt><trkpt lat="44.8166458632555" lon="9.197052758411225"><ele>469.20000000000005</ele><time>2026-04-19T17:27:21Z</time></trkpt><trkpt lat="44.81667426455981" lon="9.197188857148266"><ele>472.0</ele><time>2026-04-19T17:27:22Z</time></trkpt><trkpt lat="44.81665820269311" lon="9.197370289421695"><ele>472.40000000000003</ele><time>2026-04-19T17:27:23Z</time></trkpt><trkpt lat="44.81666633110982" lon="9.197556743321728"><ele>472.80000000000007</ele><time>2026-04-19T17:27:24Z</time></trkpt><trkpt lat="44.81666828988818" lon="9.197715595259655"><ele>473.2</ele><time>2026-04-19T17:27:25Z</time></trkpt><trkpt lat="44.816657091647436" lon="9.197854921979305"><ele>473.6</ele><time>2026-04-19T17:27:26Z</time></trkpt><trkpt lat="44.81661541116592" lon="9.197990216614965"><ele>474.0</ele><time>2026-04-19T17:27:27Z</time></trkpt><trkpt lat="44.816565379145274" lon="9.198147224754864"><ele>474.25</ele><time>2026-04-19T17:27:28Z</time></trkpt><trkpt lat="44.816527935425555" lon="9.198341130110485"><ele>474.5</ele><time>2026-04-19T17:27:29Z</time></trkpt><trkpt lat="44.81648365352566" lon="9.198511422275505"><ele>474.75</ele><time>2026-04-19T17:27:30Z</time></trkpt><trkpt lat="44.816453043515686" lon="9.198686660697717"><ele>475.0</ele><time>2026-04-19T17:27:31Z</time></trkpt><trkpt lat="44.81642451115703" lon="9.198834871215272"><ele>475.00000000000006</ele><time>2026-04-19T17:27:32Z</time></trkpt><trkpt lat="44.816376818240805" lon="9.1989205757467"><ele>475.0</ele><time>2026-04-19T17:27:33Z</time></trkpt><trkpt lat="44.81632616218083" lon="9.198976563537322"><ele>475.0</ele><time>2026-04-19T17:27:34Z</time></trkpt><trkpt lat="44.81623906016312" lon="9.198961169867879"><ele>475.0</ele><time>2026-04-19T17:27:35Z</time></trkpt><trkpt lat="44.8161669536623" lon="9.198903926677733"><ele>475.00000000000006</ele><time>2026-04-19T17:27:36Z</time></trkpt><trkpt lat="44.81610337248461" lon="9.198814385944528"><ele>475.0</ele><time>2026-04-19T17:27:37Z</time></trkpt><trkpt lat="44.816081782748554" lon="9.198730758234765"><ele>475.0</ele><time>2026-04-19T17:27:38Z</time></trkpt><trkpt lat="44.81611457640666" lon="9.198594813458024"><ele>475.0</ele><time>2026-04-19T17:27:40Z</time></trkpt><trkpt lat="44.81615484320138" lon="9.198487363664622"><ele>475.0</ele><time>2026-04-19T17:27:41Z</time></trkpt><trkpt lat="44.816183280777636" lon="9.198383366969884"><ele>475.0</ele><time>2026-04-19T17:27:42Z</time></trkpt><trkpt lat="44.8162132973337" lon="9.198287736018047"><ele>475.0</ele><time>2026-04-19T17:27:43Z</time></trkpt><trkpt lat="44.816259899666996" lon="9.198147145172728"><ele>474.75</ele><time>2026-04-19T17:27:45Z</time></trkpt><trkpt lat="44.81621905714221" lon="9.19796504340827"><ele>474.5</ele><time>2026-04-19T17:27:47Z</time></trkpt><trkpt lat="44.81613058478449" lon="9.197883181528697"><ele>474.25</ele><time>2026-04-19T17:27:48Z</time></trkpt><trkpt lat="44.81602917306118" lon="9.197806111615382"><ele>474.0</ele><time>2026-04-19T17:27:49Z</time></trkpt><trkpt lat="44.81593606694565" lon="9.197690388397257"><ele>479.2</ele><time>2026-04-19T17:27:50Z</time></trkpt><trkpt lat="44.81583810439293" lon="9.197525459927684"><ele>484.4</ele><time>2026-04-19T17:27:50.999Z</time></trkpt><trkpt lat="44.815772970562854" lon="9.197373964121748"><ele>489.6</ele><time>2026-04-19T17:27:51.999Z</time></trkpt><trkpt lat="44.815746677022176" lon="9.197274818782635"><ele>494.8</ele><time>2026-04-19T17:27:52.999Z</time></trkpt><trkpt lat="44.8157409419888" lon="9.197142754351935"><ele>500.0</ele><time>2026-04-19T17:27:53.999Z</time></trkpt><trkpt lat="44.81575650110125" lon="9.196982204907563"><ele>501.0</ele><time>2026-04-19T17:27:54.999Z</time></trkpt><trkpt lat="44.81578526353524" lon="9.196792044942374"><ele>502.0</ele><time>2026-04-19T17:27:55.999Z</time></trkpt><trkpt lat="44.81584159922702" lon="9.196608723097208"><ele>503.0</ele><time>2026-04-19T17:27:56.999Z</time></trkpt><trkpt lat="44.815894428027335" lon="9.196437731287917"><ele>504.0</ele><time>2026-04-19T17:27:57.999Z</time></trkpt><trkpt lat="44.81594048987546" lon="9.196280966065117"><ele>504.8333333333333</ele><time>2026-04-19T17:27:58.999Z</time></trkpt><trkpt lat="44.81595055545345" lon="9.196132025178402"><ele>505.66666666666663</ele><time>2026-04-19T17:27:59.999Z</time></trkpt><trkpt lat="44.81595360502855" lon="9.196020167419519"><ele>506.5</ele><time>2026-04-19T17:28:00.999Z</time></trkpt><trkpt lat="44.815906115019146" lon="9.195940481030837"><ele>507.3333333333333</ele><time>2026-04-19T17:28:01.999Z</time></trkpt><trkpt lat="44.815830997012085" lon="9.195889541866968"><ele>508.16666666666663</ele><time>2026-04-19T17:28:02.999Z</time></trkpt><trkpt lat="44.81576303978608" lon="9.19585871904095"><ele>509.0</ele><time>2026-04-19T17:28:03.999Z</time></trkpt><trkpt lat="44.81568421255074" lon="9.195915149351803"><ele>509.0</ele><time>2026-04-19T17:28:04.999Z</time></trkpt><trkpt lat="44.81562372588861" lon="9.19602090357689"><ele>509.0</ele><time>2026-04-19T17:28:05.999Z</time></trkpt><trkpt lat="44.81562202662572" lon="9.19619766662118"><ele>509.0</ele><time>2026-04-19T17:28:06.999Z</time></trkpt><trkpt lat="44.81560264759414" lon="9.196380228838725"><ele>509.0</ele><time>2026-04-19T17:28:07.999Z</time></trkpt><trkpt lat="44.815584950298955" lon="9.196560769325023"><ele>507.75</ele><time>2026-04-19T17:28:08.999Z</time></trkpt><trkpt lat="44.81554471864864" lon="9.196716315481225"><ele>506.5</ele><time>2026-04-19T17:28:09.999Z</time></trkpt><trkpt lat="44.815480888298595" lon="9.196848749095333"><ele>505.25</ele><time>2026-04-19T17:28:10.999Z</time></trkpt><trkpt lat="44.8154240043876" lon="9.196987154475945"><ele>504.0</ele><time>2026-04-19T17:28:11.999Z</time></trkpt><trkpt lat="44.81538479326412" lon="9.197138176736006"><ele>503.0</ele><time>2026-04-19T17:28:12.999Z</time></trkpt><trkpt lat="44.81537977044703" lon="9.197338136483422"><ele>502.0</ele><time>2026-04-19T17:28:13.999Z</time></trkpt><trkpt lat="44.81538746810869" lon="9.197519041719975"><ele>501.0</ele><time>2026-04-19T17:28:14.999Z</time></trkpt><trkpt lat="44.81538070580567" lon="9.197653271041721"><ele>500.0</ele><time>2026-04-19T17:28:15.999Z</time></trkpt><trkpt lat="44.815350785142684" lon="9.197777555385334"><ele>500.0</ele><time>2026-04-19T17:28:16.999Z</time></trkpt><trkpt lat="44.81529491809057" lon="9.197916683792712"><ele>500.0</ele><time>2026-04-19T17:28:17.999Z</time></trkpt><trkpt lat="44.815226917036995" lon="9.198040660094433"><ele>500.0</ele><time>2026-04-19T17:28:18.999Z</time></trkpt><trkpt lat="44.815145268827166" lon="9.198166250322364"><ele>500.0</ele><time>2026-04-19T17:28:19.999Z</time></trkpt><trkpt lat="44.815065624240134" lon="9.198276080117905"><ele>505.25</ele><time>2026-04-19T17:28:20.999Z</time></trkpt><trkpt lat="44.8149757569741" lon="9.198390733876655"><ele>510.5</ele><time>2026-04-19T17:28:21.999Z</time></trkpt><trkpt lat="44.81489243363348" lon="9.198477012572429"><ele>515.75</ele><time>2026-04-19T17:28:22.999Z</time></trkpt><trkpt lat="44.814772266985486" lon="9.198552795549885"><ele>521.0</ele><time>2026-04-19T17:28:23.999Z</time></trkpt><trkpt lat="44.814651693196616" lon="9.198605452386527"><ele>521.0</ele><time>2026-04-19T17:28:24.999Z</time></trkpt><trkpt lat="44.81453734958595" lon="9.198666236097136"><ele>521.0</ele><time>2026-04-19T17:28:25.999Z</time></trkpt><trkpt lat="44.814441521585096" lon="9.198718764077185"><ele>521.0</ele><time>2026-04-19T17:28:26.999Z</time></trkpt><trkpt lat="44.814354052350936" lon="9.198766919145395"><ele>521.0</ele><time>2026-04-19T17:28:27.999Z</time></trkpt><trkpt lat="44.81427061540178" lon="9.198808438550756"><ele>521.0</ele><time>2026-04-19T17:28:28.999Z</time></trkpt><trkpt lat="44.8141722364419" lon="9.198774682286434"><ele>526.75</ele><time>2026-04-19T17:28:29.999Z</time></trkpt><trkpt lat="44.81405186564492" lon="9.198772226843158"><ele>532.5</ele><time>2026-04-19T17:28:30.999Z</time></trkpt><trkpt lat="44.813934811219234" lon="9.19877152119511"><ele>538.25</ele><time>2026-04-19T17:28:31.999Z</time></trkpt><trkpt lat="44.813795586063264" lon="9.198784703099278"><ele>544.0</ele><time>2026-04-19T17:28:32.999Z</time></trkpt><trkpt lat="44.81368047836613" lon="9.198838158064078"><ele>544.0</ele><time>2026-04-19T17:28:33.999Z</time></trkpt><trkpt lat="44.813570937087135" lon="9.198881326281196"><ele>544.0</ele><time>2026-04-19T17:28:34.999Z</time></trkpt><trkpt lat="44.81348271359103" lon="9.199005110724233"><ele>544.0</ele><time>2026-04-19T17:28:35.999Z</time></trkpt><trkpt lat="44.8134211675435" lon="9.1991553245799"><ele>544.0</ele><time>2026-04-19T17:28:36.999Z</time></trkpt><trkpt lat="44.81337060961218" lon="9.199254262917874"><ele>544.0</ele><time>2026-04-19T17:28:37.999Z</time></trkpt><trkpt lat="44.81330570225272" lon="9.199294612146174"><ele>544.25</ele><time>2026-04-19T17:28:39.999Z</time></trkpt><trkpt lat="44.813276923284874" lon="9.199112139720334"><ele>544.5</ele><time>2026-04-19T17:28:41.999Z</time></trkpt><trkpt lat="44.813348646089864" lon="9.198972705273894"><ele>544.75</ele><time>2026-04-19T17:28:42.999Z</time></trkpt><trkpt lat="44.813411950505575" lon="9.198841929716815"><ele>545.0</ele><time>2026-04-19T17:28:43.999Z</time></trkpt><trkpt lat="44.81348796511887" lon="9.198696079668487"><ele>544.75</ele><time>2026-04-19T17:28:44.999Z</time></trkpt><trkpt lat="44.8135801101195" lon="9.198544184860088"><ele>544.5</ele><time>2026-04-19T17:28:45.999Z</time></trkpt><trkpt lat="44.81366402553734" lon="9.19837896948253"><ele>544.25</ele><time>2026-04-19T17:28:46.999Z</time></trkpt><trkpt lat="44.81372189091984" lon="9.198214074509778"><ele>544.0</ele><time>2026-04-19T17:28:47.999Z</time></trkpt><trkpt lat="44.81377691664076" lon="9.198104249234738"><ele>549.5</ele><time>2026-04-19T17:28:48.999Z</time></trkpt><trkpt lat="44.81386012259261" lon="9.198032316411124"><ele>555.0</ele><time>2026-04-19T17:28:49.999Z</time></trkpt><trkpt lat="44.8139550220122" lon="9.198004942869545"><ele>560.5</ele><time>2026-04-19T17:28:50.999Z</time></trkpt><trkpt lat="44.814084272766024" lon="9.197959701782905"><ele>566.0</ele><time>2026-04-19T17:28:51.999Z</time></trkpt><trkpt lat="44.81421368488275" lon="9.197927487474912"><ele>566.0</ele><time>2026-04-19T17:28:52.999Z</time></trkpt><trkpt lat="44.814317417834424" lon="9.197919291630916"><ele>566.0</ele><time>2026-04-19T17:28:53.999Z</time></trkpt><trkpt lat="44.81440981003369" lon="9.19789105236107"><ele>566.0</ele><time>2026-04-19T17:28:54.999Z</time></trkpt><trkpt lat="44.814499730957586" lon="9.197862585499548"><ele>566.0</ele><time>2026-04-19T17:28:55.999Z</time></trkpt><trkpt lat="44.814563383263746" lon="9.197805701022677"><ele>566.0</ele><time>2026-04-19T17:28:56.999Z</time></trkpt><trkpt lat="44.81461103331336" lon="9.197722823927378"><ele>566.0</ele><time>2026-04-19T17:28:57.999Z</time></trkpt><trkpt lat="44.814646661190814" lon="9.197596637502988"><ele>562.5</ele><time>2026-04-19T17:28:58.999Z</time></trkpt><trkpt lat="44.81466204944514" lon="9.197432096235335"><ele>559.0</ele><time>2026-04-19T17:28:59.999Z</time></trkpt><trkpt lat="44.81467381350133" lon="9.19724802478597"><ele>555.5</ele><time>2026-04-19T17:29:00.999Z</time></trkpt><trkpt lat="44.81469507830771" lon="9.197056324713621"><ele>552.0</ele><time>2026-04-19T17:29:01.999Z</time></trkpt><trkpt lat="44.81471367109884" lon="9.196868456963898"><ele>552.0</ele><time>2026-04-19T17:29:02.999Z</time></trkpt><trkpt lat="44.81474021488715" lon="9.196673492894782"><ele>552.0</ele><time>2026-04-19T17:29:03.999Z</time></trkpt><trkpt lat="44.81476379564443" lon="9.196517249039402"><ele>552.0</ele><time>2026-04-19T17:29:04.999Z</time></trkpt><trkpt lat="44.81478405895732" lon="9.196376603688618"><ele>552.0</ele><time>2026-04-19T17:29:05.999Z</time></trkpt><trkpt lat="44.81479761356593" lon="9.196223390007729"><ele>553.5</ele><time>2026-04-19T17:29:06.999Z</time></trkpt><trkpt lat="44.81480060761158" lon="9.196058209628188"><ele>555.0</ele><time>2026-04-19T17:29:07.999Z</time></trkpt><trkpt lat="44.8147844051262" lon="9.195890288387103"><ele>556.5</ele><time>2026-04-19T17:29:08.999Z</time></trkpt><trkpt lat="44.81474612628528" lon="9.195719797428724"><ele>558.0</ele><time>2026-04-19T17:29:09.999Z</time></trkpt><trkpt lat="44.81470055307894" lon="9.195551796174687"><ele>558.75</ele><time>2026-04-19T17:29:10.999Z</time></trkpt><trkpt lat="44.81464188857539" lon="9.19540076242887"><ele>559.5</ele><time>2026-04-19T17:29:11.999Z</time></trkpt><trkpt lat="44.81459759541444" lon="9.195255238834743"><ele>560.25</ele><time>2026-04-19T17:29:12.999Z</time></trkpt><trkpt lat="44.81458859599085" lon="9.195101099895831"><ele>561.0</ele><time>2026-04-19T17:29:13.999Z</time></trkpt><trkpt lat="44.81461016173411" lon="9.194953146832338"><ele>558.8</ele><time>2026-04-19T17:29:14.999Z</time></trkpt><trkpt lat="44.81466332018786" lon="9.194819264241978"><ele>556.6</ele><time>2026-04-19T17:29:15.999Z</time></trkpt><trkpt lat="44.814703357145106" lon="9.194708652172155"><ele>554.4</ele><time>2026-04-19T17:29:16.999Z</time></trkpt><trkpt lat="44.814721527200696" lon="9.194610204555161"><ele>552.2</ele><time>2026-04-19T17:29:17.999Z</time></trkpt><trkpt lat="44.81473895672716" lon="9.194410019512144"><ele>550.0</ele><time>2026-04-19T17:29:19.999Z</time></trkpt><trkpt lat="44.81469019306563" lon="9.19428589760523"><ele>550.0</ele><time>2026-04-19T17:29:20.998Z</time></trkpt><trkpt lat="44.814592145426964" lon="9.194177605326184"><ele>550.0</ele><time>2026-04-19T17:29:21.999Z</time></trkpt><trkpt lat="44.81449725303725" lon="9.194102956360053"><ele>550.0</ele><time>2026-04-19T17:29:22.999Z</time></trkpt><trkpt lat="44.81442786831293" lon="9.194073063685963"><ele>550.0</ele><time>2026-04-19T17:29:23.999Z</time></trkpt><trkpt lat="44.814337433547564" lon="9.194118401188083"><ele>550.0</ele><time>2026-04-19T17:29:24.999Z</time></trkpt><trkpt lat="44.814263174617466" lon="9.194171515834363"><ele>555.5</ele><time>2026-04-19T17:29:25.999Z</time></trkpt><trkpt lat="44.81419766933602" lon="9.19428297649089"><ele>561.0</ele><time>2026-04-19T17:29:26.999Z</time></trkpt><trkpt lat="44.8141191384419" lon="9.19441150566226"><ele>566.5</ele><time>2026-04-19T17:29:27.999Z</time></trkpt><trkpt lat="44.814028723465654" lon="9.19454770682457"><ele>572.0</ele><time>2026-04-19T17:29:28.999Z</time></trkpt><trkpt lat="44.81394590670313" lon="9.194656859611076"><ele>572.0</ele><time>2026-04-19T17:29:29.999Z</time></trkpt><trkpt lat="44.813892967108806" lon="9.194802008488558"><ele>572.0</ele><time>2026-04-19T17:29:30.999Z</time></trkpt><trkpt lat="44.81384139956413" lon="9.194965828715079"><ele>572.0</ele><time>2026-04-19T17:29:31.999Z</time></trkpt><trkpt lat="44.81378926080669" lon="9.195161135983978"><ele>572.0</ele><time>2026-04-19T17:29:32.999Z</time></trkpt><trkpt lat="44.81373653488477" lon="9.195337597692811"><ele>575.25</ele><time>2026-04-19T17:29:33.999Z</time></trkpt><trkpt lat="44.81368555466766" lon="9.1955080780412"><ele>578.5</ele><time>2026-04-19T17:29:34.999Z</time></trkpt><trkpt lat="44.81364006832043" lon="9.195667934548196"><ele>581.75</ele><time>2026-04-19T17:29:35.999Z</time></trkpt><trkpt lat="44.81360105072306" lon="9.195838452581423"><ele>585.0</ele><time>2026-04-19T17:29:36.999Z</time></trkpt><trkpt lat="44.813581616782514" lon="9.19596121625195"><ele>585.0</ele><time>2026-04-19T17:29:37.999Z</time></trkpt><trkpt lat="44.813523256683965" lon="9.19604530776438"><ele>585.0</ele><time>2026-04-19T17:29:38.999Z</time></trkpt><trkpt lat="44.81343756960568" lon="9.196095127211448"><ele>585.0</ele><time>2026-04-19T17:29:39.999Z</time></trkpt><trkpt lat="44.8133259745138" lon="9.196094159430821"><ele>585.0</ele><time>2026-04-19T17:29:40.999Z</time></trkpt><trkpt lat="44.81321957240977" lon="9.196133760290767"><ele>585.0</ele><time>2026-04-19T17:29:41.999Z</time></trkpt><trkpt lat="44.813122892613336" lon="9.196194397112087"><ele>584.5</ele><time>2026-04-19T17:29:42.999Z</time></trkpt><trkpt lat="44.81302953190936" lon="9.196307306292566"><ele>584.0</ele><time>2026-04-19T17:29:43.999Z</time></trkpt><trkpt lat="44.812953332598354" lon="9.19644585609655"><ele>583.5</ele><time>2026-04-19T17:29:44.999Z</time></trkpt><trkpt lat="44.81285250620676" lon="9.196577813113345"><ele>583.0</ele><time>2026-04-19T17:29:45.999Z</time></trkpt><trkpt lat="44.81275775889928" lon="9.196716380024167"><ele>585.75</ele><time>2026-04-19T17:29:46.999Z</time></trkpt><trkpt lat="44.81265567610246" lon="9.196850798587652"><ele>588.5</ele><time>2026-04-19T17:29:47.999Z</time></trkpt><trkpt lat="44.81253028206586" lon="9.196923587346939"><ele>591.25</ele><time>2026-04-19T17:29:48.999Z</time></trkpt><trkpt lat="44.81243475085295" lon="9.197036478218504"><ele>594.0</ele><time>2026-04-19T17:29:49.999Z</time></trkpt><trkpt lat="44.81233775029738" lon="9.197158739343825"><ele>594.0</ele><time>2026-04-19T17:29:50.999Z</time></trkpt><trkpt lat="44.81228804946129" lon="9.197330909793989"><ele>594.0</ele><time>2026-04-19T17:29:51.999Z</time></trkpt><trkpt lat="44.8122471659891" lon="9.197475493296558"><ele>594.0</ele><time>2026-04-19T17:29:52.999Z</time></trkpt><trkpt lat="44.812204049626374" lon="9.197656663413097"><ele>594.0</ele><time>2026-04-19T17:29:53.999Z</time></trkpt><trkpt lat="44.81218346153694" lon="9.197846101308402"><ele>596.5</ele><time>2026-04-19T17:29:54.999Z</time></trkpt><trkpt lat="44.81215261438247" lon="9.19800311825923"><ele>599.0</ele><time>2026-04-19T17:29:55.999Z</time></trkpt><trkpt lat="44.812103734254514" lon="9.198140052075118"><ele>601.5</ele><time>2026-04-19T17:29:56.999Z</time></trkpt><trkpt lat="44.81203323187525" lon="9.198286121989751"><ele>604.0</ele><time>2026-04-19T17:29:57.999Z</time></trkpt><trkpt lat="44.81194737419105" lon="9.198427557501146"><ele>604.0</ele><time>2026-04-19T17:29:58.999Z</time></trkpt><trkpt lat="44.81185409102372" lon="9.198583758487606"><ele>604.0</ele><time>2026-04-19T17:29:59.999Z</time></trkpt><trkpt lat="44.81178251276661" lon="9.198767508251173"><ele>604.0</ele><time>2026-04-19T17:30:00.999Z</time></trkpt><trkpt lat="44.811735463691" lon="9.19895586790579"><ele>604.0</ele><time>2026-04-19T17:30:01.999Z</time></trkpt><trkpt lat="44.81166266578265" lon="9.19909969753638"><ele>606.5</ele><time>2026-04-19T17:30:02.999Z</time></trkpt><trkpt lat="44.81155699345047" lon="9.19922943568493"><ele>609.0</ele><time>2026-04-19T17:30:03.999Z</time></trkpt><trkpt lat="44.81145872365613" lon="9.199370764983856"><ele>611.5</ele><time>2026-04-19T17:30:04.999Z</time></trkpt><trkpt lat="44.811346525639436" lon="9.199529722296985"><ele>614.0</ele><time>2026-04-19T17:30:05.999Z</time></trkpt><trkpt lat="44.811236865308274" lon="9.199696544973735"><ele>615.0</ele><time>2026-04-19T17:30:06.999Z</time></trkpt><trkpt lat="44.81113482928021" lon="9.199871588624967"><ele>616.0</ele><time>2026-04-19T17:30:07.999Z</time></trkpt><trkpt lat="44.811040334553276" lon="9.200066237371884"><ele>617.0</ele><time>2026-04-19T17:30:08.999Z</time></trkpt><trkpt lat="44.81096261243959" lon="9.200242926429473"><ele>617.0</ele><time>2026-04-19T17:30:09.999Z</time></trkpt><trkpt lat="44.810896413703084" lon="9.200419595122101"><ele>617.0</ele><time>2026-04-19T17:30:10.999Z</time></trkpt><trkpt lat="44.8108089567253" lon="9.200545980920298"><ele>617.0</ele><time>2026-04-19T17:30:11.999Z</time></trkpt><trkpt lat="44.81073886863519" lon="9.20068068783872"><ele>617.0</ele><time>2026-04-19T17:30:12.999Z</time></trkpt><trkpt lat="44.81064271132076" lon="9.200783389944576"><ele>618.25</ele><time>2026-04-19T17:30:13.999Z</time></trkpt><trkpt lat="44.8105367487363" lon="9.200865641991205"><ele>619.5</ele><time>2026-04-19T17:30:14.999Z</time></trkpt><trkpt lat="44.8104439045431" lon="9.200950168656496"><ele>620.75</ele><time>2026-04-19T17:30:15.999Z</time></trkpt><trkpt lat="44.81035791293901" lon="9.201072926104933"><ele>622.0</ele><time>2026-04-19T17:30:16.999Z</time></trkpt><trkpt lat="44.810272271248685" lon="9.20122414077126"><ele>621.5</ele><time>2026-04-19T17:30:17.999Z</time></trkpt><trkpt lat="44.81015438516464" lon="9.201334244707509"><ele>621.0</ele><time>2026-04-19T17:30:18.999Z</time></trkpt><trkpt lat="44.81006157401501" lon="9.201467258653725"><ele>620.5</ele><time>2026-04-19T17:30:19.999Z</time></trkpt><trkpt lat="44.80999121589258" lon="9.201605141588036"><ele>620.0</ele><time>2026-04-19T17:30:20.999Z</time></trkpt><trkpt lat="44.809932503151224" lon="9.20170877900561"><ele>620.0</ele><time>2026-04-19T17:30:21.999Z</time></trkpt><trkpt lat="44.809860205012086" lon="9.201757587616296"><ele>620.0</ele><time>2026-04-19T17:30:22.999Z</time></trkpt><trkpt lat="44.809758101815184" lon="9.201763272312498"><ele>620.0</ele><time>2026-04-19T17:30:23.999Z</time></trkpt><trkpt lat="44.809641121253286" lon="9.201816390810658"><ele>620.0</ele><time>2026-04-19T17:30:24.999Z</time></trkpt><trkpt lat="44.80950521103443" lon="9.201869828663975"><ele>620.0</ele><time>2026-04-19T17:30:25.999Z</time></trkpt><trkpt lat="44.80934576777722" lon="9.20192912265978"><ele>614.3333333333333</ele><time>2026-04-19T17:30:26.999Z</time></trkpt><trkpt lat="44.809170926293895" lon="9.201968471636484"><ele>608.6666666666666</ele><time>2026-04-19T17:30:27.999Z</time></trkpt><trkpt lat="44.8090079426999" lon="9.202012881474552"><ele>603.0</ele><time>2026-04-19T17:30:28.999Z</time></trkpt><trkpt lat="44.80885680715147" lon="9.202053125825138"><ele>603.0</ele><time>2026-04-19T17:30:29.999Z</time></trkpt><trkpt lat="44.808713906988636" lon="9.202081205266536"><ele>603.0</ele><time>2026-04-19T17:30:30.999Z</time></trkpt><trkpt lat="44.80858042928583" lon="9.202087021808861"><ele>603.0</ele><time>2026-04-19T17:30:31.999Z</time></trkpt><trkpt lat="44.80845769585365" lon="9.202059548081694"><ele>603.0</ele><time>2026-04-19T17:30:32.999Z</time></trkpt><trkpt lat="44.808350013217265" lon="9.202020833977297"><ele>602.75</ele><time>2026-04-19T17:30:33.999Z</time></trkpt><trkpt lat="44.80824040702775" lon="9.202011601015107"><ele>602.5</ele><time>2026-04-19T17:30:34.999Z</time></trkpt><trkpt lat="44.80812401166217" lon="9.202053784670664"><ele>602.25</ele><time>2026-04-19T17:30:35.999Z</time></trkpt><trkpt lat="44.807994159509384" lon="9.20213415444816"><ele>602.0</ele><time>2026-04-19T17:30:36.999Z</time></trkpt><trkpt lat="44.80787686568389" lon="9.20225091352867"><ele>603.6666666666666</ele><time>2026-04-19T17:30:37.999Z</time></trkpt><trkpt lat="44.80774795568628" lon="9.20240579267192"><ele>605.3333333333334</ele><time>2026-04-19T17:30:38.999Z</time></trkpt><trkpt lat="44.80762303415757" lon="9.202559873058915"><ele>607.0</ele><time>2026-04-19T17:30:39.999Z</time></trkpt><trkpt lat="44.80751164901673" lon="9.202704031575692"><ele>607.0</ele><time>2026-04-19T17:30:40.999Z</time></trkpt><trkpt lat="44.80740840178102" lon="9.202829867688127"><ele>607.0</ele><time>2026-04-19T17:30:41.999Z</time></trkpt><trkpt lat="44.80730730308262" lon="9.202943409407531"><ele>607.0</ele><time>2026-04-19T17:30:42.999Z</time></trkpt><trkpt lat="44.80716462904205" lon="9.202993459747983"><ele>607.0</ele><time>2026-04-19T17:30:43.999Z</time></trkpt><trkpt lat="44.807009284195125" lon="9.203078556462119"><ele>608.75</ele><time>2026-04-19T17:30:44.999Z</time></trkpt><trkpt lat="44.806864848890086" lon="9.203165071197395"><ele>610.5</ele><time>2026-04-19T17:30:45.999Z</time></trkpt><trkpt lat="44.806745495192374" lon="9.203250651548373"><ele>612.25</ele><time>2026-04-19T17:30:46.999Z</time></trkpt><trkpt lat="44.80664776744106" lon="9.203321703180716"><ele>614.0</ele><time>2026-04-19T17:30:47.999Z</time></trkpt><trkpt lat="44.8065596320986" lon="9.203365995244148"><ele>614.0</ele><time>2026-04-19T17:30:48.999Z</time></trkpt><trkpt lat="44.806465480583476" lon="9.20337373137867"><ele>614.0</ele><time>2026-04-19T17:30:49.999Z</time></trkpt><trkpt lat="44.80637060440703" lon="9.203353734520391"><ele>614.0</ele><time>2026-04-19T17:30:50.999Z</time></trkpt><trkpt lat="44.8062671866652" lon="9.203313747025641"><ele>614.0</ele><time>2026-04-19T17:30:51.999Z</time></trkpt><trkpt lat="44.80617168984628" lon="9.203251558432866"><ele>614.0</ele><time>2026-04-19T17:30:52.999Z</time></trkpt><trkpt lat="44.80608979148644" lon="9.203177275329288"><ele>610.8</ele><time>2026-04-19T17:30:53.999Z</time></trkpt><trkpt lat="44.80602403521074" lon="9.203074503839673"><ele>607.5999999999999</ele><time>2026-04-19T17:30:54.999Z</time></trkpt><trkpt lat="44.80597928257914" lon="9.202946597439555"><ele>604.4</ele><time>2026-04-19T17:30:55.999Z</time></trkpt><trkpt lat="44.805942961545036" lon="9.202787016867626"><ele>601.1999999999999</ele><time>2026-04-19T17:30:56.999Z</time></trkpt><trkpt lat="44.805914233405716" lon="9.202609258441953"><ele>598.0</ele><time>2026-04-19T17:30:57.999Z</time></trkpt><trkpt lat="44.80587975363374" lon="9.202430559797953"><ele>602.8</ele><time>2026-04-19T17:30:58.999Z</time></trkpt><trkpt lat="44.8058443457523" lon="9.202258853208914"><ele>607.5999999999999</ele><time>2026-04-19T17:30:59.999Z</time></trkpt><trkpt lat="44.8058053173778" lon="9.20209314658006"><ele>612.4000000000001</ele><time>2026-04-19T17:31:00.999Z</time></trkpt><trkpt lat="44.80577123702323" lon="9.201964880035186"><ele>617.2</ele><time>2026-04-19T17:31:01.999Z</time></trkpt><trkpt lat="44.80574680077426" lon="9.20184513236875"><ele>622.0</ele><time>2026-04-19T17:31:02.999Z</time></trkpt><trkpt lat="44.805715739282824" lon="9.201731371799529"><ele>622.0</ele><time>2026-04-19T17:31:03.999Z</time></trkpt><trkpt lat="44.80566383614377" lon="9.201656762655276"><ele>622.0</ele><time>2026-04-19T17:31:04.999Z</time></trkpt><trkpt lat="44.80558322283341" lon="9.20163042312517"><ele>622.0</ele><time>2026-04-19T17:31:05.999Z</time></trkpt><trkpt lat="44.805482303740426" lon="9.201630674253547"><ele>622.0</ele><time>2026-04-19T17:31:06.999Z</time></trkpt><trkpt lat="44.80537808881152" lon="9.201600641152966"><ele>622.0</ele><time>2026-04-19T17:31:07.999Z</time></trkpt><trkpt lat="44.80525940582963" lon="9.201564855501442"><ele>625.5</ele><time>2026-04-19T17:31:08.999Z</time></trkpt><trkpt lat="44.80513571889147" lon="9.201526709442332"><ele>629.0</ele><time>2026-04-19T17:31:09.999Z</time></trkpt><trkpt lat="44.805027090402895" lon="9.20151207417224"><ele>632.5</ele><time>2026-04-19T17:31:10.999Z</time></trkpt><trkpt lat="44.80492576152959" lon="9.201441440582578"><ele>636.0</ele><time>2026-04-19T17:31:11.999Z</time></trkpt><trkpt lat="44.80485209410628" lon="9.201305332058574"><ele>636.0</ele><time>2026-04-19T17:31:12.999Z</time></trkpt><trkpt lat="44.80476095448044" lon="9.201179705093892"><ele>636.0</ele><time>2026-04-19T17:31:13.999Z</time></trkpt><trkpt lat="44.804681585944145" lon="9.201034348096021"><ele>636.0</ele><time>2026-04-19T17:31:14.999Z</time></trkpt><trkpt lat="44.80460082197111" lon="9.200901926196362"><ele>636.0</ele><time>2026-04-19T17:31:15.999Z</time></trkpt><trkpt lat="44.80455861265701" lon="9.20081185852631"><ele>636.2</ele><time>2026-04-19T17:31:16.999Z</time></trkpt><trkpt lat="44.804577334679756" lon="9.200595927021984"><ele>636.4000000000001</ele><time>2026-04-19T17:31:18.999Z</time></trkpt><trkpt lat="44.804638433193276" lon="9.200468829097238"><ele>636.6</ele><time>2026-04-19T17:31:19.999Z</time></trkpt><trkpt lat="44.80468526812382" lon="9.200350227312446"><ele>636.8000000000001</ele><time>2026-04-19T17:31:20.999Z</time></trkpt><trkpt lat="44.80468929627347" lon="9.20025485372056"><ele>637.0</ele><time>2026-04-19T17:31:21.999Z</time></trkpt><trkpt lat="44.804691472695474" lon="9.20015444339239"><ele>637.0</ele><time>2026-04-19T17:31:22.999Z</time></trkpt><trkpt lat="44.80466342846986" lon="9.200029490397688"><ele>637.0</ele><time>2026-04-19T17:31:23.999Z</time></trkpt><trkpt lat="44.80460900928675" lon="9.199885619532157"><ele>637.0</ele><time>2026-04-19T17:31:24.999Z</time></trkpt><trkpt lat="44.804536774373695" lon="9.19973219905963"><ele>637.0</ele><time>2026-04-19T17:31:25.999Z</time></trkpt><trkpt lat="44.8044540909831" lon="9.199583131730252"><ele>637.6</ele><time>2026-04-19T17:31:26.999Z</time></trkpt><trkpt lat="44.804378832056244" lon="9.199441765594313"><ele>638.2</ele><time>2026-04-19T17:31:27.999Z</time></trkpt><trkpt lat="44.80432958732476" lon="9.19932577866855"><ele>638.8</ele><time>2026-04-19T17:31:28.999Z</time></trkpt><trkpt lat="44.8043191129461" lon="9.199209161426351"><ele>639.4</ele><time>2026-04-19T17:31:29.999Z</time></trkpt><trkpt lat="44.80433931240756" lon="9.199076538444036"><ele>640.0</ele><time>2026-04-19T17:31:30.999Z</time></trkpt><trkpt lat="44.80435397991782" lon="9.198939390432335"><ele>640.0</ele><time>2026-04-19T17:31:31.999Z</time></trkpt><trkpt lat="44.80435322627564" lon="9.198826013532907"><ele>640.0</ele><time>2026-04-19T17:31:32.999Z</time></trkpt><trkpt lat="44.804319564998295" lon="9.198719401946917"><ele>640.0</ele><time>2026-04-19T17:31:33.999Z</time></trkpt><trkpt lat="44.8042597058656" lon="9.198632528863067"><ele>640.0</ele><time>2026-04-19T17:31:34.999Z</time></trkpt><trkpt lat="44.804192595092125" lon="9.198577435124147"><ele>640.0</ele><time>2026-04-19T17:31:35.999Z</time></trkpt><trkpt lat="44.804103121071826" lon="9.198577318695971"><ele>640.0</ele><time>2026-04-19T17:31:36.999Z</time></trkpt><trkpt lat="44.80400296255487" lon="9.198624748438917"><ele>644.25</ele><time>2026-04-19T17:31:37.999Z</time></trkpt><trkpt lat="44.803889667293305" lon="9.19869774431951"><ele>648.5</ele><time>2026-04-19T17:31:38.999Z</time></trkpt><trkpt lat="44.803780295560024" lon="9.198777037142307"><ele>652.75</ele><time>2026-04-19T17:31:39.999Z</time></trkpt><trkpt lat="44.803683367198204" lon="9.19884549071562"><ele>657.0</ele><time>2026-04-19T17:31:40.999Z</time></trkpt><trkpt lat="44.80357884872949" lon="9.198875409477074"><ele>656.0</ele><time>2026-04-19T17:31:41.999Z</time></trkpt><trkpt lat="44.803469771263416" lon="9.198839499547097"><ele>655.0</ele><time>2026-04-19T17:31:42.999Z</time></trkpt><trkpt lat="44.803342522704405" lon="9.19877985983088"><ele>654.0</ele><time>2026-04-19T17:31:43.999Z</time></trkpt><trkpt lat="44.80319590698184" lon="9.19872920514761"><ele>653.0</ele><time>2026-04-19T17:31:44.999Z</time></trkpt><trkpt lat="44.80305198318769" lon="9.19865325622221"><ele>653.0</ele><time>2026-04-19T17:31:45.999Z</time></trkpt><trkpt lat="44.80289587976532" lon="9.198556660934988"><ele>653.0</ele><time>2026-04-19T17:31:46.999Z</time></trkpt><trkpt lat="44.802733626263795" lon="9.198512078091577"><ele>653.0</ele><time>2026-04-19T17:31:47.999Z</time></trkpt><trkpt lat="44.80259986751739" lon="9.198504205375576"><ele>652.5</ele><time>2026-04-19T17:31:48.999Z</time></trkpt><trkpt lat="44.80249060789309" lon="9.198443558643888"><ele>652.0</ele><time>2026-04-19T17:31:49.999Z</time></trkpt><trkpt lat="44.80238803603072" lon="9.198335013142916"><ele>651.5</ele><time>2026-04-19T17:31:50.999Z</time></trkpt><trkpt lat="44.80228415162719" lon="9.198220714901291"><ele>651.0</ele><time>2026-04-19T17:31:51.999Z</time></trkpt><trkpt lat="44.80216359386822" lon="9.198115254300323"><ele>651.0</ele><time>2026-04-19T17:31:52.999Z</time></trkpt><trkpt lat="44.80203728491639" lon="9.198059075158827"><ele>651.0</ele><time>2026-04-19T17:31:53.999Z</time></trkpt><trkpt lat="44.801955593574284" lon="9.1979456145955"><ele>651.0</ele><time>2026-04-19T17:31:54.999Z</time></trkpt><trkpt lat="44.80188703917375" lon="9.197847408281307"><ele>651.0</ele><time>2026-04-19T17:31:55.999Z</time></trkpt><trkpt lat="44.80182668184521" lon="9.197765091473912"><ele>651.0</ele><time>2026-04-19T17:31:56.999Z</time></trkpt><trkpt lat="44.80177371060232" lon="9.19770786801798"><ele>657.0</ele><time>2026-04-19T17:31:57.999Z</time></trkpt><trkpt lat="44.80171387047246" lon="9.197678314174533"><ele>663.0</ele><time>2026-04-19T17:31:58.999Z</time></trkpt><trkpt lat="44.801645432240335" lon="9.197698086767266"><ele>669.0</ele><time>2026-04-19T17:31:59.999Z</time></trkpt><trkpt lat="44.801593358433955" lon="9.197957804527938"><ele>675.0</ele><time>2026-04-19T17:32:01.999Z</time></trkpt><trkpt lat="44.80167073125335" lon="9.198100583694234"><ele>677.5</ele><time>2026-04-19T17:32:02.999Z</time></trkpt><trkpt lat="44.80174390588185" lon="9.198244573640837"><ele>680.0</ele><time>2026-04-19T17:32:03.999Z</time></trkpt><trkpt lat="44.801826813098366" lon="9.198395669005293"><ele>682.5</ele><time>2026-04-19T17:32:04.999Z</time></trkpt><trkpt lat="44.8019054461118" lon="9.198555048531562"><ele>685.0</ele><time>2026-04-19T17:32:05.999Z</time></trkpt><trkpt lat="44.80196125829769" lon="9.198696698867485"><ele>681.2</ele><time>2026-04-19T17:32:06.999Z</time></trkpt><trkpt lat="44.80199716997252" lon="9.198832405168327"><ele>677.4</ele><time>2026-04-19T17:32:07.999Z</time></trkpt><trkpt lat="44.80202202915221" lon="9.198975698538304"><ele>673.5999999999999</ele><time>2026-04-19T17:32:08.999Z</time></trkpt><trkpt lat="44.802026159449504" lon="9.199123659027647"><ele>669.8</ele><time>2026-04-19T17:32:09.999Z</time></trkpt><trkpt lat="44.80201026521306" lon="9.199275495609022"><ele>666.0</ele><time>2026-04-19T17:32:10.999Z</time></trkpt><trkpt lat="44.8019850473195" lon="9.199450035858002"><ele>666.0</ele><time>2026-04-19T17:32:11.999Z</time></trkpt><trkpt lat="44.80195575573473" lon="9.199633177649076"><ele>666.0</ele><time>2026-04-19T17:32:12.999Z</time></trkpt><trkpt lat="44.80192441885498" lon="9.199827046485487"><ele>666.0</ele><time>2026-04-19T17:32:13.999Z</time></trkpt><trkpt lat="44.80189530627909" lon="9.20002112630519"><ele>666.0</ele><time>2026-04-19T17:32:14.999Z</time></trkpt><trkpt lat="44.801872103047444" lon="9.20019416532295"><ele>666.1999999999999</ele><time>2026-04-19T17:32:15.999Z</time></trkpt><trkpt lat="44.80186527908639" lon="9.20034108098699"><ele>666.4</ele><time>2026-04-19T17:32:16.999Z</time></trkpt><trkpt lat="44.80183087226561" lon="9.200492154865259"><ele>666.6</ele><time>2026-04-19T17:32:17.999Z</time></trkpt><trkpt lat="44.80179455503421" lon="9.200645996973956"><ele>666.8</ele><time>2026-04-19T17:32:18.999Z</time></trkpt><trkpt lat="44.80173988326861" lon="9.200774368479944"><ele>667.0</ele><time>2026-04-19T17:32:19.999Z</time></trkpt><trkpt lat="44.80167026445145" lon="9.200902645734493"><ele>675.25</ele><time>2026-04-19T17:32:20.999Z</time></trkpt><trkpt lat="44.80157296241005" lon="9.201006720297148"><ele>683.5</ele><time>2026-04-19T17:32:21.999Z</time></trkpt><trkpt lat="44.80146147462605" lon="9.20113926298294"><ele>691.75</ele><time>2026-04-19T17:32:22.999Z</time></trkpt><trkpt lat="44.801358660345386" lon="9.201283306607285"><ele>700.0</ele><time>2026-04-19T17:32:23.999Z</time></trkpt><trkpt lat="44.80127221588575" lon="9.201398297030172"><ele>698.5</ele><time>2026-04-19T17:32:24.999Z</time></trkpt><trkpt lat="44.80120299388752" lon="9.20151721826687"><ele>697.0</ele><time>2026-04-19T17:32:25.999Z</time></trkpt><trkpt lat="44.80112891275201" lon="9.201669598797233"><ele>695.5</ele><time>2026-04-19T17:32:26.999Z</time></trkpt><trkpt lat="44.801078811999034" lon="9.201838732390781"><ele>694.0</ele><time>2026-04-19T17:32:27.999Z</time></trkpt><trkpt lat="44.80103424167226" lon="9.202031059444547"><ele>694.0</ele><time>2026-04-19T17:32:28.999Z</time></trkpt><trkpt lat="44.80100704856359" lon="9.202223494569132"><ele>694.0</ele><time>2026-04-19T17:32:29.999Z</time></trkpt><trkpt lat="44.80098490087076" lon="9.202411949498424"><ele>694.0</ele><time>2026-04-19T17:32:30.999Z</time></trkpt><trkpt lat="44.80094918575658" lon="9.202584693904337"><ele>694.0</ele><time>2026-04-19T17:32:31.999Z</time></trkpt><trkpt lat="44.8008956471279" lon="9.20273775204067"><ele>700.6666666666667</ele><time>2026-04-19T17:32:32.999Z</time></trkpt><trkpt lat="44.800847941917574" lon="9.202944082114213"><ele>707.3333333333334</ele><time>2026-04-19T17:32:33.999Z</time></trkpt><trkpt lat="44.80082829435612" lon="9.203173515041415"><ele>714.0</ele><time>2026-04-19T17:32:34.999Z</time></trkpt><trkpt lat="44.800808905907495" lon="9.203395936105615"><ele>714.2</ele><time>2026-04-19T17:32:35.999Z</time></trkpt><trkpt lat="44.80079169080163" lon="9.203566160990665"><ele>714.4000000000001</ele><time>2026-04-19T17:32:36.999Z</time></trkpt><trkpt lat="44.80077543901796" lon="9.203708004259658"><ele>714.6</ele><time>2026-04-19T17:32:37.999Z</time></trkpt><trkpt lat="44.80075153401551" lon="9.20383089084918"><ele>714.8</ele><time>2026-04-19T17:32:38.999Z</time></trkpt><trkpt lat="44.8007100910901" lon="9.20394442101941"><ele>715.0</ele><time>2026-04-19T17:32:39.999Z</time></trkpt><trkpt lat="44.800654692102036" lon="9.204036297360476"><ele>715.0</ele><time>2026-04-19T17:32:40.999Z</time></trkpt><trkpt lat="44.80061088161113" lon="9.204116295796704"><ele>715.0</ele><time>2026-04-19T17:32:41.999Z</time></trkpt><trkpt lat="44.80054536537083" lon="9.204131835104047"><ele>715.0</ele><time>2026-04-19T17:32:42.999Z</time></trkpt><trkpt lat="44.80046125804597" lon="9.2040687759168"><ele>715.0</ele><time>2026-04-19T17:32:44.999Z</time></trkpt><trkpt lat="44.80046386854895" lon="9.203867693606995"><ele>715.0</ele><time>2026-04-19T17:32:46.999Z</time></trkpt><trkpt lat="44.80047441874843" lon="9.203726864981304"><ele>715.0</ele><time>2026-04-19T17:32:47.999Z</time></trkpt><trkpt lat="44.80044316305728" lon="9.203608679936378"><ele>715.0</ele><time>2026-04-19T17:32:48.999Z</time></trkpt><trkpt lat="44.800389191790266" lon="9.203488060609143"><ele>715.0</ele><time>2026-04-19T17:32:49.999Z</time></trkpt><trkpt lat="44.80031130322304" lon="9.203390276269648"><ele>715.0</ele><time>2026-04-19T17:32:50.999Z</time></trkpt><trkpt lat="44.80023200459697" lon="9.203266166374075"><ele>715.0</ele><time>2026-04-19T17:32:51.999Z</time></trkpt><trkpt lat="44.80014841248915" lon="9.203145210238796"><ele>716.4</ele><time>2026-04-19T17:32:52.999Z</time></trkpt><trkpt lat="44.80007046430216" lon="9.203013834400114"><ele>717.8</ele><time>2026-04-19T17:32:53.999Z</time></trkpt><trkpt lat="44.80004089862665" lon="9.202883271037129"><ele>719.2</ele><time>2026-04-19T17:32:54.999Z</time></trkpt><trkpt lat="44.80000437524352" lon="9.202797921662103"><ele>720.6</ele><time>2026-04-19T17:32:55.999Z</time></trkpt><trkpt lat="44.7999485209482" lon="9.20272075582933"><ele>722.0</ele><time>2026-04-19T17:32:56.999Z</time></trkpt><trkpt lat="44.79985734415517" lon="9.202695260488754"><ele>722.0</ele><time>2026-04-19T17:32:57.999Z</time></trkpt><trkpt lat="44.79978193594445" lon="9.20273887109788"><ele>722.0</ele><time>2026-04-19T17:32:58.999Z</time></trkpt><trkpt lat="44.79973954759342" lon="9.202850345536497"><ele>722.0</ele><time>2026-04-19T17:32:59.999Z</time></trkpt><trkpt lat="44.79976009962403" lon="9.20299649286597"><ele>722.0</ele><time>2026-04-19T17:33:00.999Z</time></trkpt><trkpt lat="44.79975092191197" lon="9.203145992148025"><ele>722.0</ele><time>2026-04-19T17:33:01.999Z</time></trkpt><trkpt lat="44.79974803274523" lon="9.203314926684609"><ele>724.6</ele><time>2026-04-19T17:33:02.999Z</time></trkpt><trkpt lat="44.79974327047088" lon="9.203484010187967"><ele>727.2</ele><time>2026-04-19T17:33:03.999Z</time></trkpt><trkpt lat="44.79975233162222" lon="9.203651656554946"><ele>729.8</ele><time>2026-04-19T17:33:04.999Z</time></trkpt><trkpt lat="44.79973226236849" lon="9.203780960052958"><ele>732.4</ele><time>2026-04-19T17:33:05.999Z</time></trkpt><trkpt lat="44.799675395478005" lon="9.203899622594903"><ele>735.0</ele><time>2026-04-19T17:33:07.999Z</time></trkpt><trkpt lat="44.79958288624558" lon="9.203861377922964"><ele>735.0</ele><time>2026-04-19T17:33:09.999Z</time></trkpt><trkpt lat="44.799527387156104" lon="9.203684697415094"><ele>735.0</ele><time>2026-04-19T17:33:11.999Z</time></trkpt><trkpt lat="44.79949092028031" lon="9.20356795032257"><ele>735.0</ele><time>2026-04-19T17:33:12.999Z</time></trkpt><trkpt lat="44.79944605759711" lon="9.203475087673274"><ele>735.0</ele><time>2026-04-19T17:33:13.999Z</time></trkpt><trkpt lat="44.79936043057099" lon="9.203420833550515"><ele>735.0</ele><time>2026-04-19T17:33:14.999Z</time></trkpt><trkpt lat="44.79926833530668" lon="9.203417008205468"><ele>735.4</ele><time>2026-04-19T17:33:15.999Z</time></trkpt><trkpt lat="44.79916502393777" lon="9.203505187907831"><ele>735.8</ele><time>2026-04-19T17:33:17.999Z</time></trkpt><trkpt lat="44.79915153496925" lon="9.203629259047768"><ele>736.2</ele><time>2026-04-19T17:33:18.999Z</time></trkpt><trkpt lat="44.79918623842025" lon="9.203772529868182"><ele>736.6</ele><time>2026-04-19T17:33:19.999Z</time></trkpt><trkpt lat="44.79921124688018" lon="9.203905574502581"><ele>737.0</ele><time>2026-04-19T17:33:20.999Z</time></trkpt><trkpt lat="44.799234972827755" lon="9.204054342236207"><ele>740.6</ele><time>2026-04-19T17:33:21.999Z</time></trkpt><trkpt lat="44.799252321365984" lon="9.204196065579149"><ele>744.2</ele><time>2026-04-19T17:33:22.999Z</time></trkpt><trkpt lat="44.799250161547384" lon="9.20431483026988"><ele>747.8</ele><time>2026-04-19T17:33:23.999Z</time></trkpt><trkpt lat="44.799230371802416" lon="9.204416816182151"><ele>751.4</ele><time>2026-04-19T17:33:24.999Z</time></trkpt><trkpt lat="44.79918853534189" lon="9.204533404652695"><ele>755.0</ele><time>2026-04-19T17:33:25.999Z</time></trkpt><trkpt lat="44.79913644643826" lon="9.204665857291669"><ele>755.0</ele><time>2026-04-19T17:33:26.999Z</time></trkpt><trkpt lat="44.799077512099444" lon="9.204810077574502"><ele>755.0</ele><time>2026-04-19T17:33:27.999Z</time></trkpt><trkpt lat="44.79900952647371" lon="9.204965483737743"><ele>755.0</ele><time>2026-04-19T17:33:28.999Z</time></trkpt><trkpt lat="44.79889625872142" lon="9.205082091328762"><ele>755.0</ele><time>2026-04-19T17:33:29.999Z</time></trkpt><trkpt lat="44.79881793280253" lon="9.205223981376264"><ele>755.0</ele><time>2026-04-19T17:33:30.999Z</time></trkpt><trkpt lat="44.798753087637564" lon="9.205352102738045"><ele>755.0</ele><time>2026-04-19T17:33:31.999Z</time></trkpt><trkpt lat="44.79869663847329" lon="9.205462030597824"><ele>755.0</ele><time>2026-04-19T17:33:32.999Z</time></trkpt><trkpt lat="44.79862214997993" lon="9.20553185368866"><ele>755.0</ele><time>2026-04-19T17:33:33.999Z</time></trkpt><trkpt lat="44.79851192044043" lon="9.20555669762601"><ele>755.0</ele><time>2026-04-19T17:33:34.999Z</time></trkpt><trkpt lat="44.798387675055295" lon="9.205537967511074"><ele>757.6</ele><time>2026-04-19T17:33:35.999Z</time></trkpt><trkpt lat="44.79828064106289" lon="9.205483373796843"><ele>760.2</ele><time>2026-04-19T17:33:36.999Z</time></trkpt><trkpt lat="44.79819100981132" lon="9.205476449814448"><ele>762.8</ele><time>2026-04-19T17:33:37.999Z</time></trkpt><trkpt lat="44.798085621393575" lon="9.205521910745162"><ele>765.4</ele><time>2026-04-19T17:33:38.999Z</time></trkpt><trkpt lat="44.79797651731527" lon="9.205593469923532"><ele>768.0</ele><time>2026-04-19T17:33:39.999Z</time></trkpt><trkpt lat="44.7978601466044" lon="9.205622366664858"><ele>768.0</ele><time>2026-04-19T17:33:40.999Z</time></trkpt><trkpt lat="44.79776673142615" lon="9.205629858418948"><ele>768.0</ele><time>2026-04-19T17:33:41.999Z</time></trkpt><trkpt lat="44.797685491565986" lon="9.20566422816772"><ele>768.0</ele><time>2026-04-19T17:33:42.999Z</time></trkpt><trkpt lat="44.79761388021981" lon="9.205705596486437"><ele>768.0</ele><time>2026-04-19T17:33:43.999Z</time></trkpt><trkpt lat="44.79757508226055" lon="9.2058083648232"><ele>768.0</ele><time>2026-04-19T17:33:44.999Z</time></trkpt><trkpt lat="44.797571754535774" lon="9.205950084882312"><ele>768.0</ele><time>2026-04-19T17:33:45.999Z</time></trkpt><trkpt lat="44.79759931807381" lon="9.206078835581602"><ele>767.4</ele><time>2026-04-19T17:33:46.999Z</time></trkpt><trkpt lat="44.79765006752125" lon="9.206211975919691"><ele>766.8</ele><time>2026-04-19T17:33:47.999Z</time></trkpt><trkpt lat="44.79768572706563" lon="9.206308907099052"><ele>766.2</ele><time>2026-04-19T17:33:48.999Z</time></trkpt><trkpt lat="44.797702660954" lon="9.20640723023364"><ele>765.6</ele><time>2026-04-19T17:33:49.999Z</time></trkpt><trkpt lat="44.79763306487863" lon="9.206567473596735"><ele>765.0</ele><time>2026-04-19T17:33:51.999Z</time></trkpt><trkpt lat="44.79756184984339" lon="9.206627484893678"><ele>767.5</ele><time>2026-04-19T17:33:52.999Z</time></trkpt><trkpt lat="44.79745933864595" lon="9.20663309183959"><ele>770.0</ele><time>2026-04-19T17:33:53.999Z</time></trkpt><trkpt lat="44.797349849530235" lon="9.206635860985598"><ele>772.5</ele><time>2026-04-19T17:33:54.999Z</time></trkpt><trkpt lat="44.797225373725844" lon="9.206651834939668"><ele>775.0</ele><time>2026-04-19T17:33:55.999Z</time></trkpt><trkpt lat="44.797111660549824" lon="9.206730053281055"><ele>775.0</ele><time>2026-04-19T17:33:56.999Z</time></trkpt><trkpt lat="44.797002313391616" lon="9.206835885459846"><ele>775.0</ele><time>2026-04-19T17:33:57.999Z</time></trkpt><trkpt lat="44.796900608265005" lon="9.206934892368908"><ele>775.0</ele><time>2026-04-19T17:33:58.999Z</time></trkpt><trkpt lat="44.79680215409699" lon="9.206987685930928"><ele>775.0</ele><time>2026-04-19T17:33:59.999Z</time></trkpt><trkpt lat="44.79670156931325" lon="9.206999800320432"><ele>775.75</ele><time>2026-04-19T17:34:00.999Z</time></trkpt><trkpt lat="44.79657876409245" lon="9.20695776327707"><ele>776.5</ele><time>2026-04-19T17:34:01.999Z</time></trkpt><trkpt lat="44.796457613262895" lon="9.20689166593945"><ele>777.25</ele><time>2026-04-19T17:34:02.999Z</time></trkpt><trkpt lat="44.79635926742901" lon="9.206822512868587"><ele>778.0</ele><time>2026-04-19T17:34:03.999Z</time></trkpt><trkpt lat="44.79628183357169" lon="9.206767015368563"><ele>778.0</ele><time>2026-04-19T17:34:04.999Z</time></trkpt><trkpt lat="44.79619949927243" lon="9.206742140299639"><ele>778.0</ele><time>2026-04-19T17:34:05.999Z</time></trkpt><trkpt lat="44.79609002075517" lon="9.20676062886457"><ele>778.0</ele><time>2026-04-19T17:34:06.999Z</time></trkpt><trkpt lat="44.795967363277654" lon="9.206817825207255"><ele>778.0</ele><time>2026-04-19T17:34:07.999Z</time></trkpt><trkpt lat="44.795835588803044" lon="9.206884598664367"><ele>776.0</ele><time>2026-04-19T17:34:08.999Z</time></trkpt><trkpt lat="44.79569885621233" lon="9.206950014716325"><ele>774.0</ele><time>2026-04-19T17:34:09.999Z</time></trkpt><trkpt lat="44.79557827175986" lon="9.207016835540223"><ele>772.0</ele><time>2026-04-19T17:34:10.999Z</time></trkpt><trkpt lat="44.79546460842054" lon="9.207042478091273"><ele>770.0</ele><time>2026-04-19T17:34:11.999Z</time></trkpt><trkpt lat="44.79535997595997" lon="9.207033300799525"><ele>770.0000000000001</ele><time>2026-04-19T17:34:12.999Z</time></trkpt><trkpt lat="44.7952731689674" lon="9.20703127647908"><ele>770.0</ele><time>2026-04-19T17:34:13.999Z</time></trkpt><trkpt lat="44.79521624478773" lon="9.207072354332809"><ele>770.0</ele><time>2026-04-19T17:34:14.999Z</time></trkpt><trkpt lat="44.79515498177569" lon="9.20712780369588"><ele>770.0</ele><time>2026-04-19T17:34:15.999Z</time></trkpt><trkpt lat="44.79513059335" lon="9.20725409448759"><ele>770.0000000000001</ele><time>2026-04-19T17:34:16.999Z</time></trkpt><trkpt lat="44.795123754511906" lon="9.207404734490499"><ele>770.0</ele><time>2026-04-19T17:34:17.999Z</time></trkpt><trkpt lat="44.7951516189873" lon="9.207574852771653"><ele>767.6</ele><time>2026-04-19T17:34:18.999Z</time></trkpt><trkpt lat="44.795159094901685" lon="9.207689190963144"><ele>765.2</ele><time>2026-04-19T17:34:19.999Z</time></trkpt><trkpt lat="44.79514776546031" lon="9.20780340823824"><ele>762.8</ele><time>2026-04-19T17:34:21.999Z</time></trkpt><trkpt lat="44.79504023773458" lon="9.207735016772293"><ele>760.4</ele><time>2026-04-19T17:34:23.999Z</time></trkpt><trkpt lat="44.795005907944606" lon="9.20760154224995"><ele>758.0</ele><time>2026-04-19T17:34:24.999Z</time></trkpt><trkpt lat="44.79498206665836" lon="9.207456302092412"><ele>758.0</ele><time>2026-04-19T17:34:25.999Z</time></trkpt><trkpt lat="44.79494586252773" lon="9.207334317343982"><ele>758.0</ele><time>2026-04-19T17:34:26.999Z</time></trkpt><trkpt lat="44.79485782503734" lon="9.207226439090347"><ele>758.0</ele><time>2026-04-19T17:34:27.999Z</time></trkpt><trkpt lat="44.79479216298984" lon="9.207145613755"><ele>758.0</ele><time>2026-04-19T17:34:28.999Z</time></trkpt><trkpt lat="44.79468225500381" lon="9.207081225298333"><ele>758.0</ele><time>2026-04-19T17:34:29.999Z</time></trkpt><trkpt lat="44.79455137932954" lon="9.207042368034458"><ele>756.5</ele><time>2026-04-19T17:34:30.999Z</time></trkpt><trkpt lat="44.7944226678693" lon="9.206987867033355"><ele>755.0</ele><time>2026-04-19T17:34:31.999Z</time></trkpt><trkpt lat="44.79428730904848" lon="9.206871976866086"><ele>753.5</ele><time>2026-04-19T17:34:32.999Z</time></trkpt><trkpt lat="44.794158427805826" lon="9.206767958663574"><ele>752.0</ele><time>2026-04-19T17:34:33.999Z</time></trkpt><trkpt lat="44.794026698158426" lon="9.206671232823524"><ele>749.25</ele><time>2026-04-19T17:34:34.999Z</time></trkpt><trkpt lat="44.79390238694327" lon="9.206579713087327"><ele>746.5</ele><time>2026-04-19T17:34:35.999Z</time></trkpt><trkpt lat="44.793788271276284" lon="9.206507218724191"><ele>743.75</ele><time>2026-04-19T17:34:36.999Z</time></trkpt><trkpt lat="44.79368970904294" lon="9.206471545884103"><ele>741.0</ele><time>2026-04-19T17:34:37.999Z</time></trkpt><trkpt lat="44.79357210965691" lon="9.206457655128052"><ele>739.3333333333334</ele><time>2026-04-19T17:34:38.999Z</time></trkpt><trkpt lat="44.79343540859627" lon="9.206474685320812"><ele>737.6666666666667</ele><time>2026-04-19T17:34:39.999Z</time></trkpt><trkpt lat="44.79327805852199" lon="9.206507219242987"><ele>736.0</ele><time>2026-04-19T17:34:40.999Z</time></trkpt><trkpt lat="44.79308590546329" lon="9.206539201356339"><ele>735.3333333333334</ele><time>2026-04-19T17:34:41.999Z</time></trkpt><trkpt lat="44.792871655390954" lon="9.206552940004304"><ele>734.6666666666666</ele><time>2026-04-19T17:34:42.999Z</time></trkpt><trkpt lat="44.792664484685496" lon="9.206564400474585"><ele>734.0</ele><time>2026-04-19T17:34:43.999Z</time></trkpt><trkpt lat="44.792458522188326" lon="9.20656975828871"><ele>732.6666666666666</ele><time>2026-04-19T17:34:44.999Z</time></trkpt><trkpt lat="44.79226382825762" lon="9.206579212386991"><ele>731.3333333333334</ele><time>2026-04-19T17:34:45.999Z</time></trkpt><trkpt lat="44.79207091321204" lon="9.206586424855372"><ele>730.0</ele><time>2026-04-19T17:34:46.999Z</time></trkpt><trkpt lat="44.79188635305278" lon="9.206597970842978"><ele>728.6666666666667</ele><time>2026-04-19T17:34:47.999Z</time></trkpt><trkpt lat="44.79171716818882" lon="9.206611035574284"><ele>727.3333333333334</ele><time>2026-04-19T17:34:48.999Z</time></trkpt><trkpt lat="44.791539503326504" lon="9.206613104579162"><ele>726.0</ele><time>2026-04-19T17:34:49.999Z</time></trkpt><trkpt lat="44.79136825874166" lon="9.206608664281115"><ele>726.0</ele><time>2026-04-19T17:34:50.999Z</time></trkpt><trkpt lat="44.79122346136143" lon="9.206600973022757"><ele>726.0</ele><time>2026-04-19T17:34:51.999Z</time></trkpt><trkpt lat="44.791092324313986" lon="9.206581217815344"><ele>726.0</ele><time>2026-04-19T17:34:52.999Z</time></trkpt><trkpt lat="44.79097466713791" lon="9.206529038442635"><ele>726.0</ele><time>2026-04-19T17:34:53.999Z</time></trkpt><trkpt lat="44.79085542594467" lon="9.206439002445657"><ele>724.0</ele><time>2026-04-19T17:34:54.999Z</time></trkpt><trkpt lat="44.79073557809243" lon="9.206320940229139"><ele>722.0</ele><time>2026-04-19T17:34:55.999Z</time></trkpt><trkpt lat="44.79062730802699" lon="9.206226044416171"><ele>720.0</ele><time>2026-04-19T17:34:56.999Z</time></trkpt><trkpt lat="44.7905244572165" lon="9.206156318443373"><ele>718.0</ele><time>2026-04-19T17:34:57.999Z</time></trkpt><trkpt lat="44.790426432541196" lon="9.206105372049848"><ele>718.0</ele><time>2026-04-19T17:34:58.999Z</time></trkpt><trkpt lat="44.79031016459854" lon="9.206084039174318"><ele>718.0</ele><time>2026-04-19T17:34:59.999Z</time></trkpt><trkpt lat="44.79018686409411" lon="9.206055184754636"><ele>718.0</ele><time>2026-04-19T17:35:00.999Z</time></trkpt><trkpt lat="44.790047306830104" lon="9.206029213739454"><ele>718.0</ele><time>2026-04-19T17:35:01.999Z</time></trkpt><trkpt lat="44.78990108924206" lon="9.205986861206686"><ele>722.5</ele><time>2026-04-19T17:35:02.999Z</time></trkpt><trkpt lat="44.789747031696976" lon="9.205931662400449"><ele>727.0</ele><time>2026-04-19T17:35:03.999Z</time></trkpt><trkpt lat="44.78961958692036" lon="9.205885529893322"><ele>731.5</ele><time>2026-04-19T17:35:04.999Z</time></trkpt><trkpt lat="44.78949212498009" lon="9.205832574210076"><ele>736.0</ele><time>2026-04-19T17:35:05.999Z</time></trkpt><trkpt lat="44.78937217427629" lon="9.205800960536068"><ele>736.25</ele><time>2026-04-19T17:35:06.999Z</time></trkpt><trkpt lat="44.78924787834533" lon="9.205783545237031"><ele>736.5</ele><time>2026-04-19T17:35:07.999Z</time></trkpt><trkpt lat="44.789114468393706" lon="9.205791120536654"><ele>736.75</ele><time>2026-04-19T17:35:08.999Z</time></trkpt><trkpt lat="44.78897008502517" lon="9.205812548539948"><ele>737.0</ele><time>2026-04-19T17:35:09.999Z</time></trkpt><trkpt lat="44.788803939120825" lon="9.20584845367954"><ele>737.0</ele><time>2026-04-19T17:35:10.999Z</time></trkpt><trkpt lat="44.78861467708572" lon="9.205890460370151"><ele>737.0</ele><time>2026-04-19T17:35:11.999Z</time></trkpt><trkpt lat="44.788411411302775" lon="9.20593263768916"><ele>737.0</ele><time>2026-04-19T17:35:12.999Z</time></trkpt><trkpt lat="44.7882156586929" lon="9.205971728257053"><ele>737.3333333333333</ele><time>2026-04-19T17:35:13.999Z</time></trkpt><trkpt lat="44.78804204042047" lon="9.206007178933465"><ele>737.6666666666666</ele><time>2026-04-19T17:35:14.999Z</time></trkpt><trkpt lat="44.787875388121996" lon="9.206037722864632"><ele>738.0</ele><time>2026-04-19T17:35:15.999Z</time></trkpt><trkpt lat="44.78771351215587" lon="9.206066583517009"><ele>740.3333333333334</ele><time>2026-04-19T17:35:16.999Z</time></trkpt><trkpt lat="44.78754670436607" lon="9.20609450227732"><ele>742.6666666666667</ele><time>2026-04-19T17:35:17.999Z</time></trkpt><trkpt lat="44.78738187182986" lon="9.206121629798394"><ele>745.0</ele><time>2026-04-19T17:35:18.999Z</time></trkpt><trkpt lat="44.787221768738796" lon="9.206150260843573"><ele>745.0</ele><time>2026-04-19T17:35:19.999Z</time></trkpt><trkpt lat="44.78708094274825" lon="9.206170571695607"><ele>745.0</ele><time>2026-04-19T17:35:20.999Z</time></trkpt><trkpt lat="44.78695693921068" lon="9.206184912028052"><ele>745.0</ele><time>2026-04-19T17:35:21.999Z</time></trkpt><trkpt lat="44.78684605659753" lon="9.206181187581139"><ele>745.0</ele><time>2026-04-19T17:35:22.999Z</time></trkpt><trkpt lat="44.786729018351856" lon="9.206176939429326"><ele>747.5</ele><time>2026-04-19T17:35:23.999Z</time></trkpt><trkpt lat="44.78661190033771" lon="9.206277141274933"><ele>750.0</ele><time>2026-04-19T17:35:24.999Z</time></trkpt><trkpt lat="44.78648621972218" lon="9.206355526019005"><ele>752.5</ele><time>2026-04-19T17:35:25.999Z</time></trkpt><trkpt lat="44.78635047322765" lon="9.20641017087409"><ele>755.0</ele><time>2026-04-19T17:35:26.999Z</time></trkpt><trkpt lat="44.786233064326744" lon="9.206435071157005"><ele>755.0</ele><time>2026-04-19T17:35:27.999Z</time></trkpt><trkpt lat="44.78612578813031" lon="9.206436278279554"><ele>755.0</ele><time>2026-04-19T17:35:28.999Z</time></trkpt><trkpt lat="44.78600178151255" lon="9.206360843276704"><ele>755.0</ele><time>2026-04-19T17:35:29.999Z</time></trkpt><trkpt lat="44.78587050563398" lon="9.206290583427382"><ele>755.0</ele><time>2026-04-19T17:35:30.999Z</time></trkpt><trkpt lat="44.78573096747496" lon="9.206228168800715"><ele>756.0</ele><time>2026-04-19T17:35:31.999Z</time></trkpt><trkpt lat="44.785592649157266" lon="9.206193869748475"><ele>757.0</ele><time>2026-04-19T17:35:32.999Z</time></trkpt><trkpt lat="44.78547260480952" lon="9.206183143617388"><ele>758.0</ele><time>2026-04-19T17:35:33.999Z</time></trkpt><trkpt lat="44.78536982106151" lon="9.206128614778484"><ele>759.0</ele><time>2026-04-19T17:35:34.999Z</time></trkpt><trkpt lat="44.78527670409458" lon="9.206050583562117"><ele>759.0</ele><time>2026-04-19T17:35:35.999Z</time></trkpt><trkpt lat="44.78520852153602" lon="9.205948426310497"><ele>759.0</ele><time>2026-04-19T17:35:36.999Z</time></trkpt><trkpt lat="44.78517556491402" lon="9.205810046212571"><ele>759.0</ele><time>2026-04-19T17:35:37.999Z</time></trkpt><trkpt lat="44.78515365879077" lon="9.20564383150119"><ele>759.0</ele><time>2026-04-19T17:35:38.999Z</time></trkpt><trkpt lat="44.78517339520511" lon="9.2054625079589"><ele>760.0</ele><time>2026-04-19T17:35:39.999Z</time></trkpt><trkpt lat="44.78521553022385" lon="9.205307934731566"><ele>761.0</ele><time>2026-04-19T17:35:40.999Z</time></trkpt><trkpt lat="44.78524919334205" lon="9.205173303965063"><ele>762.0</ele><time>2026-04-19T17:35:41.999Z</time></trkpt><trkpt lat="44.78524922514102" lon="9.205076967973625"><ele>763.0</ele><time>2026-04-19T17:35:42.999Z</time></trkpt><trkpt lat="44.78523064830015" lon="9.204984137467097"><ele>764.0</ele><time>2026-04-19T17:35:43.999Z</time></trkpt><trkpt lat="44.78516229153565" lon="9.204943442597129"><ele>765.0</ele><time>2026-04-19T17:35:44.999Z</time></trkpt><trkpt lat="44.78509149754961" lon="9.20493783284457"><ele>765.0</ele><time>2026-04-19T17:35:45.999Z</time></trkpt><trkpt lat="44.78499970824701" lon="9.204950428697995"><ele>765.0</ele><time>2026-04-19T17:35:46.999Z</time></trkpt><trkpt lat="44.784892709918275" lon="9.204985576258466"><ele>765.0</ele><time>2026-04-19T17:35:47.999Z</time></trkpt><trkpt lat="44.78477378860629" lon="9.205028045934876"><ele>765.0</ele><time>2026-04-19T17:35:48.999Z</time></trkpt><trkpt lat="44.784641950879205" lon="9.205087979022087"><ele>765.0</ele><time>2026-04-19T17:35:49.999Z</time></trkpt><trkpt lat="44.78450869319027" lon="9.20513154588025"><ele>765.0</ele><time>2026-04-19T17:35:50.999Z</time></trkpt><trkpt lat="44.78438677042821" lon="9.205173532229841"><ele>765.0</ele><time>2026-04-19T17:35:51.999Z</time></trkpt><trkpt lat="44.784270094816996" lon="9.205192399720623"><ele>765.0</ele><time>2026-04-19T17:35:52.999Z</time></trkpt><trkpt lat="44.784161640903655" lon="9.205178424252995"><ele>765.5</ele><time>2026-04-19T17:35:53.999Z</time></trkpt><trkpt lat="44.78405295751482" lon="9.205119097967557"><ele>766.0</ele><time>2026-04-19T17:35:54.999Z</time></trkpt><trkpt lat="44.783944551931356" lon="9.20500747221793"><ele>766.5</ele><time>2026-04-19T17:35:55.999Z</time></trkpt><trkpt lat="44.78383326538078" lon="9.204945209925148"><ele>767.0</ele><time>2026-04-19T17:35:56.999Z</time></trkpt><trkpt lat="44.78372073619917" lon="9.204941520379961"><ele>767.0</ele><time>2026-04-19T17:35:57.999Z</time></trkpt><trkpt lat="44.783596103475496" lon="9.204950907168909"><ele>767.0</ele><time>2026-04-19T17:35:58.999Z</time></trkpt><trkpt lat="44.783466195795654" lon="9.204949526530527"><ele>767.0</ele><time>2026-04-19T17:35:59.999Z</time></trkpt><trkpt lat="44.78332859168724" lon="9.20492425556189"><ele>767.0</ele><time>2026-04-19T17:36:00.999Z</time></trkpt><trkpt lat="44.7831801913031" lon="9.204948115808861"><ele>767.0</ele><time>2026-04-19T17:36:01.999Z</time></trkpt><trkpt lat="44.78305702022031" lon="9.20501180547079"><ele>767.0</ele><time>2026-04-19T17:36:02.999Z</time></trkpt><trkpt lat="44.782940163746794" lon="9.205042152296242"><ele>767.0</ele><time>2026-04-19T17:36:03.999Z</time></trkpt><trkpt lat="44.78282830885946" lon="9.205032653230747"><ele>767.0</ele><time>2026-04-19T17:36:04.999Z</time></trkpt><trkpt lat="44.78271437051646" lon="9.204990258498"><ele>766.0</ele><time>2026-04-19T17:36:05.999Z</time></trkpt><trkpt lat="44.78261078105414" lon="9.204938577440226"><ele>765.0</ele><time>2026-04-19T17:36:06.999Z</time></trkpt><trkpt lat="44.78248614946095" lon="9.204852390006153"><ele>764.0</ele><time>2026-04-19T17:36:07.999Z</time></trkpt><trkpt lat="44.78236046885114" lon="9.204736957719781"><ele>763.0</ele><time>2026-04-19T17:36:08.999Z</time></trkpt><trkpt lat="44.78222177710336" lon="9.20466783233979"><ele>766.25</ele><time>2026-04-19T17:36:09.999Z</time></trkpt><trkpt lat="44.782105073757165" lon="9.20457263640695"><ele>769.5</ele><time>2026-04-19T17:36:10.999Z</time></trkpt><trkpt lat="44.781976621526006" lon="9.20453466806889"><ele>772.75</ele><time>2026-04-19T17:36:11.999Z</time></trkpt><trkpt lat="44.78185001484475" lon="9.204490514926302"><ele>776.0</ele><time>2026-04-19T17:36:13Z</time></trkpt><trkpt lat="44.78170478811631" lon="9.20446049217481"><ele>776.0</ele><time>2026-04-19T17:36:14Z</time></trkpt><trkpt lat="44.78154859175592" lon="9.204426567051257"><ele>776.0</ele><time>2026-04-19T17:36:15Z</time></trkpt><trkpt lat="44.781406125668724" lon="9.204387206360625"><ele>776.0</ele><time>2026-04-19T17:36:16Z</time></trkpt><trkpt lat="44.78126293434932" lon="9.204371785759136"><ele>776.0</ele><time>2026-04-19T17:36:17Z</time></trkpt><trkpt lat="44.78111929777101" lon="9.204379885897177"><ele>773.25</ele><time>2026-04-19T17:36:18Z</time></trkpt><trkpt lat="44.7809651329136" lon="9.204396146859919"><ele>770.5</ele><time>2026-04-19T17:36:19Z</time></trkpt><trkpt lat="44.7808199512534" lon="9.204396946800774"><ele>767.75</ele><time>2026-04-19T17:36:20Z</time></trkpt><trkpt lat="44.78067909632789" lon="9.204439637750939"><ele>765.0</ele><time>2026-04-19T17:36:21Z</time></trkpt><trkpt lat="44.780536283196824" lon="9.204459263363704"><ele>765.0</ele><time>2026-04-19T17:36:22Z</time></trkpt><trkpt lat="44.78039678582462" lon="9.204482822272027"><ele>765.0</ele><time>2026-04-19T17:36:23Z</time></trkpt><trkpt lat="44.78025915334551" lon="9.204510062235768"><ele>765.0</ele><time>2026-04-19T17:36:24Z</time></trkpt><trkpt lat="44.7801243823183" lon="9.204528166711036"><ele>765.0</ele><time>2026-04-19T17:36:25Z</time></trkpt><trkpt lat="44.77999458913893" lon="9.20454187692549"><ele>762.5</ele><time>2026-04-19T17:36:26Z</time></trkpt><trkpt lat="44.779874693073566" lon="9.204524966582364"><ele>760.0</ele><time>2026-04-19T17:36:27Z</time></trkpt><trkpt lat="44.7797487402114" lon="9.204456558226394"><ele>757.5</ele><time>2026-04-19T17:36:28Z</time></trkpt><trkpt lat="44.77961853924792" lon="9.204376404240488"><ele>755.0</ele><time>2026-04-19T17:36:29Z</time></trkpt><trkpt lat="44.77949087960245" lon="9.204317897920497"><ele>755.0</ele><time>2026-04-19T17:36:30Z</time></trkpt><trkpt lat="44.779354071505836" lon="9.20432436646548"><ele>755.0</ele><time>2026-04-19T17:36:31Z</time></trkpt><trkpt lat="44.77922490997962" lon="9.204412978675473"><ele>755.0</ele><time>2026-04-19T17:36:32Z</time></trkpt><trkpt lat="44.77907619851453" lon="9.204502419140402"><ele>755.0</ele><time>2026-04-19T17:36:33Z</time></trkpt><trkpt lat="44.778923251323604" lon="9.20460206366164"><ele>755.0</ele><time>2026-04-19T17:36:34Z</time></trkpt><trkpt lat="44.778782443830416" lon="9.204690113694403"><ele>755.0</ele><time>2026-04-19T17:36:35Z</time></trkpt><trkpt lat="44.778642761929014" lon="9.204757582940928"><ele>755.0</ele><time>2026-04-19T17:36:36Z</time></trkpt><trkpt lat="44.77852872853638" lon="9.204817012593702"><ele>755.0</ele><time>2026-04-19T17:36:37Z</time></trkpt><trkpt lat="44.77841066715518" lon="9.20483771910473"><ele>755.0</ele><time>2026-04-19T17:36:38Z</time></trkpt><trkpt lat="44.77829341151538" lon="9.20481151138726"><ele>755.0</ele><time>2026-04-19T17:36:39Z</time></trkpt><trkpt lat="44.77814764978251" lon="9.204768041824913"><ele>755.0</ele><time>2026-04-19T17:36:40Z</time></trkpt><trkpt lat="44.778020081845526" lon="9.204750363350952"><ele>755.0</ele><time>2026-04-19T17:36:40.999Z</time></trkpt><trkpt lat="44.77790450503361" lon="9.204716928095962"><ele>755.0</ele><time>2026-04-19T17:36:41.999Z</time></trkpt><trkpt lat="44.77778886581459" lon="9.204741568930363"><ele>755.0</ele><time>2026-04-19T17:36:42.999Z</time></trkpt><trkpt lat="44.777667048467265" lon="9.204818198645249"><ele>755.0</ele><time>2026-04-19T17:36:43.999Z</time></trkpt><trkpt lat="44.77754487975059" lon="9.204922771408453"><ele>755.0</ele><time>2026-04-19T17:36:44.999Z</time></trkpt><trkpt lat="44.7774406715461" lon="9.205018872638997"><ele>753.2</ele><time>2026-04-19T17:36:45.999Z</time></trkpt><trkpt lat="44.777359693778685" lon="9.20511795407364"><ele>751.4</ele><time>2026-04-19T17:36:46.999Z</time></trkpt><trkpt lat="44.777323814527946" lon="9.205224763322954"><ele>749.5999999999999</ele><time>2026-04-19T17:36:47.999Z</time></trkpt><trkpt lat="44.77724560936433" lon="9.205299190009269"><ele>747.8</ele><time>2026-04-19T17:36:49.999Z</time></trkpt><trkpt lat="44.77717086452011" lon="9.205238404479864"><ele>746.0</ele><time>2026-04-19T17:36:51.999Z</time></trkpt><trkpt lat="44.777206145582255" lon="9.2050866559072"><ele>746.0</ele><time>2026-04-19T17:36:52.999Z</time></trkpt><trkpt lat="44.77721870358395" lon="9.204948054124642"><ele>746.0</ele><time>2026-04-19T17:36:53.999Z</time></trkpt><trkpt lat="44.777238790065645" lon="9.204789282278865"><ele>746.0</ele><time>2026-04-19T17:36:54.999Z</time></trkpt><trkpt lat="44.777260935952505" lon="9.20463390191474"><ele>746.0</ele><time>2026-04-19T17:36:55.999Z</time></trkpt><trkpt lat="44.777280384286435" lon="9.204460877977644"><ele>746.3333333333333</ele><time>2026-04-19T17:36:56.999Z</time></trkpt><trkpt lat="44.77730825312496" lon="9.204333522965037"><ele>746.6666666666666</ele><time>2026-04-19T17:36:57.999Z</time></trkpt><trkpt lat="44.777330142646306" lon="9.204220183700787"><ele>747.0</ele><time>2026-04-19T17:36:58.999Z</time></trkpt><trkpt lat="44.77734562268049" lon="9.204114724366228"><ele>747.3333333333334</ele><time>2026-04-19T17:36:59.999Z</time></trkpt><trkpt lat="44.77733759623194" lon="9.203954553781342"><ele>747.6666666666667</ele><time>2026-04-19T17:37:01.999Z</time></trkpt><trkpt lat="44.7772971370783" lon="9.203879152727023"><ele>748.0</ele><time>2026-04-19T17:37:02.999Z</time></trkpt><trkpt lat="44.777233467735655" lon="9.203791661254414"><ele>748.0</ele><time>2026-04-19T17:37:03.999Z</time></trkpt><trkpt lat="44.777156483878784" lon="9.203683703927169"><ele>748.0</ele><time>2026-04-19T17:37:04.999Z</time></trkpt><trkpt lat="44.77707912392473" lon="9.203560932622066"><ele>748.0</ele><time>2026-04-19T17:37:05.999Z</time></trkpt><trkpt lat="44.77702256631042" lon="9.203431191868862"><ele>748.0</ele><time>2026-04-19T17:37:06.999Z</time></trkpt><trkpt lat="44.776959014995306" lon="9.203310748725867"><ele>748.0</ele><time>2026-04-19T17:37:07.999Z</time></trkpt><trkpt lat="44.77694236443033" lon="9.203157250279691"><ele>745.5</ele><time>2026-04-19T17:37:08.999Z</time></trkpt><trkpt lat="44.776942939700554" lon="9.20297859412663"><ele>743.0</ele><time>2026-04-19T17:37:09.999Z</time></trkpt><trkpt lat="44.7769456692229" lon="9.202785949691606"><ele>740.5</ele><time>2026-04-19T17:37:10.999Z</time></trkpt><trkpt lat="44.77696251023485" lon="9.20260225751172"><ele>738.0</ele><time>2026-04-19T17:37:11.999Z</time></trkpt><trkpt lat="44.776951947855586" lon="9.202426122470373"><ele>736.0</ele><time>2026-04-19T17:37:12.999Z</time></trkpt><trkpt lat="44.77691380402577" lon="9.202260072150144"><ele>734.0</ele><time>2026-04-19T17:37:13.999Z</time></trkpt><trkpt lat="44.77689463051716" lon="9.202075614036708"><ele>732.0</ele><time>2026-04-19T17:37:14.999Z</time></trkpt><trkpt lat="44.7768710216625" lon="9.201887394648532"><ele>730.0</ele><time>2026-04-19T17:37:15.999Z</time></trkpt><trkpt lat="44.776859621170296" lon="9.201703041047393"><ele>730.0</ele><time>2026-04-19T17:37:16.999Z</time></trkpt><trkpt lat="44.7768615527079" lon="9.201517779104146"><ele>730.0</ele><time>2026-04-19T17:37:17.999Z</time></trkpt><trkpt lat="44.77680533575982" lon="9.201341738591903"><ele>730.0</ele><time>2026-04-19T17:37:18.999Z</time></trkpt><trkpt lat="44.77675671951784" lon="9.201165543310513"><ele>730.0</ele><time>2026-04-19T17:37:19.999Z</time></trkpt><trkpt lat="44.776695994628405" lon="9.200987548208259"><ele>731.4</ele><time>2026-04-19T17:37:20.999Z</time></trkpt><trkpt lat="44.77664715738396" lon="9.200847188491812"><ele>732.8</ele><time>2026-04-19T17:37:21.999Z</time></trkpt><trkpt lat="44.77661173186729" lon="9.20072669145921"><ele>734.2</ele><time>2026-04-19T17:37:22.999Z</time></trkpt><trkpt lat="44.77660614759696" lon="9.200594869812381"><ele>735.6</ele><time>2026-04-19T17:37:23.999Z</time></trkpt><trkpt lat="44.77664401012149" lon="9.200465001437566"><ele>737.0</ele><time>2026-04-19T17:37:24.999Z</time></trkpt><trkpt lat="44.77669717364849" lon="9.20031174520752"><ele>737.5</ele><time>2026-04-19T17:37:25.999Z</time></trkpt><trkpt lat="44.77674943433816" lon="9.200139296439538"><ele>738.0</ele><time>2026-04-19T17:37:26.999Z</time></trkpt><trkpt lat="44.776790291456685" lon="9.199960734585913"><ele>738.5</ele><time>2026-04-19T17:37:27.999Z</time></trkpt><trkpt lat="44.776822243706874" lon="9.199785135841198"><ele>739.0</ele><time>2026-04-19T17:37:28.999Z</time></trkpt><trkpt lat="44.776861370310534" lon="9.199627627820808"><ele>736.0</ele><time>2026-04-19T17:37:29.999Z</time></trkpt><trkpt lat="44.77693348350323" lon="9.19949678525416"><ele>733.0</ele><time>2026-04-19T17:37:30.999Z</time></trkpt><trkpt lat="44.77700698444463" lon="9.19937752777704"><ele>730.0</ele><time>2026-04-19T17:37:31.999Z</time></trkpt><trkpt lat="44.777105980884315" lon="9.199269673120297"><ele>727.0</ele><time>2026-04-19T17:37:32.999Z</time></trkpt><trkpt lat="44.777211733882304" lon="9.199157870152677"><ele>727.0</ele><time>2026-04-19T17:37:33.999Z</time></trkpt><trkpt lat="44.777302016790685" lon="9.199024445841697"><ele>727.0</ele><time>2026-04-19T17:37:34.999Z</time></trkpt><trkpt lat="44.777373661268584" lon="9.198880633167255"><ele>727.0</ele><time>2026-04-19T17:37:35.999Z</time></trkpt><trkpt lat="44.77744001449922" lon="9.198737560979056"><ele>727.0</ele><time>2026-04-19T17:37:36.999Z</time></trkpt><trkpt lat="44.77749622560228" lon="9.198590803314564"><ele>727.75</ele><time>2026-04-19T17:37:37.999Z</time></trkpt><trkpt lat="44.77753516810424" lon="9.19844878203129"><ele>728.5</ele><time>2026-04-19T17:37:38.999Z</time></trkpt><trkpt lat="44.77755279937736" lon="9.198294570506496"><ele>729.25</ele><time>2026-04-19T17:37:39.999Z</time></trkpt><trkpt lat="44.77757039766805" lon="9.19811989457488"><ele>730.0</ele><time>2026-04-19T17:37:40.999Z</time></trkpt><trkpt lat="44.777588879334985" lon="9.197945944921821"><ele>730.4</ele><time>2026-04-19T17:37:41.999Z</time></trkpt><trkpt lat="44.77760622481711" lon="9.19778268901829"><ele>730.8</ele><time>2026-04-19T17:37:42.999Z</time></trkpt><trkpt lat="44.777623134866495" lon="9.197631247641594"><ele>731.2</ele><time>2026-04-19T17:37:43.999Z</time></trkpt><trkpt lat="44.77763927378706" lon="9.197487391955251"><ele>731.6</ele><time>2026-04-19T17:37:44.999Z</time></trkpt><trkpt lat="44.7776550324541" lon="9.197346926019385"><ele>732.0</ele><time>2026-04-19T17:37:45.999Z</time></trkpt><trkpt lat="44.77765616311276" lon="9.197200164579462"><ele>732.0</ele><time>2026-04-19T17:37:46.999Z</time></trkpt><trkpt lat="44.77767814030694" lon="9.19704860326781"><ele>732.0</ele><time>2026-04-19T17:37:47.999Z</time></trkpt><trkpt lat="44.77770337453791" lon="9.196915989456942"><ele>732.0</ele><time>2026-04-19T17:37:48.999Z</time></trkpt><trkpt lat="44.77772155731133" lon="9.196810290980846"><ele>732.0</ele><time>2026-04-19T17:37:49.999Z</time></trkpt><trkpt lat="44.777752351808545" lon="9.196717686761426"><ele>732.0</ele><time>2026-04-19T17:37:50.999Z</time></trkpt><trkpt lat="44.77776257336477" lon="9.196576008797177"><ele>724.75</ele><time>2026-04-19T17:37:51.999Z</time></trkpt><trkpt lat="44.777766158212785" lon="9.196404548462054"><ele>717.5</ele><time>2026-04-19T17:37:52.999Z</time></trkpt><trkpt lat="44.77775959204671" lon="9.196217892030738"><ele>710.25</ele><time>2026-04-19T17:37:53.999Z</time></trkpt><trkpt lat="44.777750528154684" lon="9.196009090467962"><ele>703.0</ele><time>2026-04-19T17:37:54.999Z</time></trkpt><trkpt lat="44.777738818279396" lon="9.195778288931436"><ele>702.75</ele><time>2026-04-19T17:37:55.999Z</time></trkpt><trkpt lat="44.77770986641741" lon="9.195559964177313"><ele>702.5</ele><time>2026-04-19T17:37:56.999Z</time></trkpt><trkpt lat="44.77769631704643" lon="9.195360568260169"><ele>702.25</ele><time>2026-04-19T17:37:57.999Z</time></trkpt><trkpt lat="44.77766888691633" lon="9.195173686546548"><ele>702.0</ele><time>2026-04-19T17:37:58.999Z</time></trkpt><trkpt lat="44.77764787928164" lon="9.194972663165775"><ele>705.5</ele><time>2026-04-19T17:37:59.999Z</time></trkpt><trkpt lat="44.7776204791411" lon="9.194780019295628"><ele>709.0</ele><time>2026-04-19T17:38:00.999Z</time></trkpt><trkpt lat="44.7775978513051" lon="9.194611072509218"><ele>712.5</ele><time>2026-04-19T17:38:01.999Z</time></trkpt><trkpt lat="44.77756534184942" lon="9.194459338729306"><ele>716.0</ele><time>2026-04-19T17:38:03Z</time></trkpt><trkpt lat="44.77751779918582" lon="9.194309952969766"><ele>716.0</ele><time>2026-04-19T17:38:04Z</time></trkpt><trkpt lat="44.77745766367712" lon="9.194161005292544"><ele>716.0</ele><time>2026-04-19T17:38:05Z</time></trkpt><trkpt lat="44.777399451613476" lon="9.194039640406707"><ele>716.0</ele><time>2026-04-19T17:38:06Z</time></trkpt><trkpt lat="44.77732434818813" lon="9.193950104080443"><ele>716.0</ele><time>2026-04-19T17:38:07Z</time></trkpt><trkpt lat="44.777221521516836" lon="9.193889295436172"><ele>716.0</ele><time>2026-04-19T17:38:08Z</time></trkpt><trkpt lat="44.7770998350786" lon="9.193799117010188"><ele>714.75</ele><time>2026-04-19T17:38:09Z</time></trkpt><trkpt lat="44.77696768170282" lon="9.19375800038316"><ele>713.5</ele><time>2026-04-19T17:38:10Z</time></trkpt><trkpt lat="44.77687085277093" lon="9.193654447815655"><ele>712.25</ele><time>2026-04-19T17:38:11Z</time></trkpt><trkpt lat="44.77677780978923" lon="9.193529689969186"><ele>711.0</ele><time>2026-04-19T17:38:12Z</time></trkpt><trkpt lat="44.77666149557929" lon="9.193391515699217"><ele>711.0</ele><time>2026-04-19T17:38:13Z</time></trkpt><trkpt lat="44.7765336044874" lon="9.193282239009848"><ele>711.0</ele><time>2026-04-19T17:38:14Z</time></trkpt><trkpt lat="44.77642437436846" lon="9.193165214642272"><ele>711.0</ele><time>2026-04-19T17:38:15Z</time></trkpt><trkpt lat="44.77632582308126" lon="9.193037991960095"><ele>711.0</ele><time>2026-04-19T17:38:16Z</time></trkpt><trkpt lat="44.77624692581075" lon="9.192895013670446"><ele>710.0</ele><time>2026-04-19T17:38:17Z</time></trkpt><trkpt lat="44.77618937219259" lon="9.192721293752443"><ele>709.0</ele><time>2026-04-19T17:38:18Z</time></trkpt><trkpt lat="44.776148239156335" lon="9.19251976654786"><ele>708.0</ele><time>2026-04-19T17:38:19Z</time></trkpt><trkpt lat="44.7761135406868" lon="9.192292015448974"><ele>707.0</ele><time>2026-04-19T17:38:20Z</time></trkpt><trkpt lat="44.776077211368786" lon="9.19206979891943"><ele>706.0</ele><time>2026-04-19T17:38:21Z</time></trkpt><trkpt lat="44.77605234425465" lon="9.19188187609772"><ele>705.0</ele><time>2026-04-19T17:38:22Z</time></trkpt><trkpt lat="44.77603355536276" lon="9.19172185840249"><ele>704.0</ele><time>2026-04-19T17:38:23Z</time></trkpt><trkpt lat="44.77600511453351" lon="9.191602541249761"><ele>700.75</ele><time>2026-04-19T17:38:24Z</time></trkpt><trkpt lat="44.77594679463878" lon="9.191494884800395"><ele>697.5</ele><time>2026-04-19T17:38:25Z</time></trkpt><trkpt lat="44.77584784105473" lon="9.191383384336767"><ele>694.25</ele><time>2026-04-19T17:38:26Z</time></trkpt><trkpt lat="44.77573292744296" lon="9.191259343164695"><ele>691.0</ele><time>2026-04-19T17:38:27Z</time></trkpt><trkpt lat="44.77568266613472" lon="9.191081841006389"><ele>691.0</ele><time>2026-04-19T17:38:28Z</time></trkpt><trkpt lat="44.77563722570174" lon="9.190926198233978"><ele>691.0</ele><time>2026-04-19T17:38:29Z</time></trkpt><trkpt lat="44.77558623592793" lon="9.190760855235133"><ele>691.0</ele><time>2026-04-19T17:38:30Z</time></trkpt><trkpt lat="44.77556268640459" lon="9.190568760194267"><ele>691.0</ele><time>2026-04-19T17:38:31Z</time></trkpt><trkpt lat="44.775556613327254" lon="9.19036249220022"><ele>689.25</ele><time>2026-04-19T17:38:32Z</time></trkpt><trkpt lat="44.775571730279914" lon="9.190150212513364"><ele>687.5</ele><time>2026-04-19T17:38:33Z</time></trkpt><trkpt lat="44.77557601506172" lon="9.189942533487196"><ele>685.75</ele><time>2026-04-19T17:38:34Z</time></trkpt><trkpt lat="44.77557913034291" lon="9.189741679918624"><ele>684.0</ele><time>2026-04-19T17:38:35Z</time></trkpt><trkpt lat="44.775585302421234" lon="9.189559628571454"><ele>683.0</ele><time>2026-04-19T17:38:36Z</time></trkpt><trkpt lat="44.77559242212751" lon="9.189374144866113"><ele>682.0</ele><time>2026-04-19T17:38:37Z</time></trkpt><trkpt lat="44.775574348538996" lon="9.189215871217417"><ele>681.0</ele><time>2026-04-19T17:38:38Z</time></trkpt><trkpt lat="44.77557432980334" lon="9.189067505382514"><ele>680.0</ele><time>2026-04-19T17:38:39Z</time></trkpt><trkpt lat="44.77551515232493" lon="9.188917105404434"><ele>677.6666666666666</ele><time>2026-04-19T17:38:40Z</time></trkpt><trkpt lat="44.775412621938685" lon="9.18880270293425"><ele>675.3333333333334</ele><time>2026-04-19T17:38:41Z</time></trkpt><trkpt lat="44.775288726393114" lon="9.188660597060894"><ele>673.0</ele><time>2026-04-19T17:38:42Z</time></trkpt><trkpt lat="44.77514648210789" lon="9.188505780908123"><ele>673.0</ele><time>2026-04-19T17:38:43Z</time></trkpt><trkpt lat="44.77501299355363" lon="9.188368211717213"><ele>673.0</ele><time>2026-04-19T17:38:44Z</time></trkpt><trkpt lat="44.77489070172825" lon="9.188243436743562"><ele>673.0</ele><time>2026-04-19T17:38:45Z</time></trkpt><trkpt lat="44.77478735570766" lon="9.188113886460124"><ele>671.25</ele><time>2026-04-19T17:38:46Z</time></trkpt><trkpt lat="44.77470575733455" lon="9.18795760841197"><ele>669.5</ele><time>2026-04-19T17:38:47Z</time></trkpt><trkpt lat="44.77463129061768" lon="9.18778320049641"><ele>667.75</ele><time>2026-04-19T17:38:48Z</time></trkpt><trkpt lat="44.77456432850752" lon="9.187628800243788"><ele>666.0</ele><time>2026-04-19T17:38:49Z</time></trkpt><trkpt lat="44.77449750836172" lon="9.187483112607492"><ele>665.25</ele><time>2026-04-19T17:38:50Z</time></trkpt><trkpt lat="44.77443312572762" lon="9.18733868938801"><ele>664.5</ele><time>2026-04-19T17:38:51Z</time></trkpt><trkpt lat="44.774373630953654" lon="9.187193711980267"><ele>663.75</ele><time>2026-04-19T17:38:52Z</time></trkpt><trkpt lat="44.77431065942161" lon="9.18704903617998"><ele>663.0</ele><time>2026-04-19T17:38:53Z</time></trkpt><trkpt lat="44.77423533345489" lon="9.186887696947018"><ele>663.0</ele><time>2026-04-19T17:38:54Z</time></trkpt><trkpt lat="44.774147377600556" lon="9.186696429531304"><ele>663.0</ele><time>2026-04-19T17:38:55Z</time></trkpt><trkpt lat="44.77405777502774" lon="9.186499709427514"><ele>663.0</ele><time>2026-04-19T17:38:56Z</time></trkpt><trkpt lat="44.773976390452184" lon="9.186316965468377"><ele>660.0</ele><time>2026-04-19T17:38:57Z</time></trkpt><trkpt lat="44.77389597192166" lon="9.186146488399679"><ele>657.0</ele><time>2026-04-19T17:38:58Z</time></trkpt><trkpt lat="44.773814371028884" lon="9.18598984042878"><ele>654.0</ele><time>2026-04-19T17:38:59Z</time></trkpt><trkpt lat="44.773724133450656" lon="9.185855549611071"><ele>651.0</ele><time>2026-04-19T17:39:00Z</time></trkpt><trkpt lat="44.773636107938906" lon="9.185719567156578"><ele>651.0</ele><time>2026-04-19T17:39:01Z</time></trkpt><trkpt lat="44.77354122210083" lon="9.185630321168134"><ele>651.0</ele><time>2026-04-19T17:39:02Z</time></trkpt><trkpt lat="44.77347464515368" lon="9.185548263684339"><ele>651.0</ele><time>2026-04-19T17:39:03Z</time></trkpt><trkpt lat="44.773416677127074" lon="9.18546271277499"><ele>651.0</ele><time>2026-04-19T17:39:04Z</time></trkpt><trkpt lat="44.7733874765082" lon="9.185343814547773"><ele>651.0</ele><time>2026-04-19T17:39:05Z</time></trkpt><trkpt lat="44.77337146708375" lon="9.185209575994087"><ele>652.4</ele><time>2026-04-19T17:39:06Z</time></trkpt><trkpt lat="44.77338112863925" lon="9.185090326092755"><ele>653.8</ele><time>2026-04-19T17:39:07Z</time></trkpt><trkpt lat="44.773413152983714" lon="9.184972465686153"><ele>655.1999999999999</ele><time>2026-04-19T17:39:08Z</time></trkpt><trkpt lat="44.77349133759083" lon="9.184904659911417"><ele>656.5999999999999</ele><time>2026-04-19T17:39:09Z</time></trkpt><trkpt lat="44.773576774961526" lon="9.184809427570974"><ele>658.0</ele><time>2026-04-19T17:39:10Z</time></trkpt><trkpt lat="44.77366361063166" lon="9.18469166401608"><ele>659.75</ele><time>2026-04-19T17:39:11Z</time></trkpt><trkpt lat="44.773765273728415" lon="9.184584256218209"><ele>661.5</ele><time>2026-04-19T17:39:12Z</time></trkpt><trkpt lat="44.77387890922499" lon="9.184495626059567"><ele>663.25</ele><time>2026-04-19T17:39:13Z</time></trkpt><trkpt lat="44.77401782895602" lon="9.184431791717454"><ele>665.0</ele><time>2026-04-19T17:39:14Z</time></trkpt><trkpt lat="44.77417347684246" lon="9.184373829054136"><ele>665.0</ele><time>2026-04-19T17:39:15Z</time></trkpt><trkpt lat="44.77433664460084" lon="9.184314182832232"><ele>665.0</ele><time>2026-04-19T17:39:16Z</time></trkpt><trkpt lat="44.77448139872439" lon="9.184261975241112"><ele>665.0</ele><time>2026-04-19T17:39:17Z</time></trkpt><trkpt lat="44.77461643342841" lon="9.184214175948517"><ele>663.5</ele><time>2026-04-19T17:39:18Z</time></trkpt><trkpt lat="44.77474111405677" lon="9.184169854716872"><ele>662.0</ele><time>2026-04-19T17:39:19Z</time></trkpt><trkpt lat="44.77486763698305" lon="9.184132309435249"><ele>660.5</ele><time>2026-04-19T17:39:20Z</time></trkpt><trkpt lat="44.77498042315846" lon="9.184098618840151"><ele>659.0</ele><time>2026-04-19T17:39:21Z</time></trkpt><trkpt lat="44.77508433135062" lon="9.184062314376707"><ele>659.0</ele><time>2026-04-19T17:39:22Z</time></trkpt><trkpt lat="44.775169894046755" lon="9.184035796040591"><ele>659.0</ele><time>2026-04-19T17:39:23Z</time></trkpt><trkpt lat="44.77525750671889" lon="9.184027418023055"><ele>659.0</ele><time>2026-04-19T17:39:24Z</time></trkpt><trkpt lat="44.7753706858523" lon="9.18405982676179"><ele>659.0</ele><time>2026-04-19T17:39:25Z</time></trkpt><trkpt lat="44.77551166838741" lon="9.184128446317818"><ele>659.0</ele><time>2026-04-19T17:39:26Z</time></trkpt><trkpt lat="44.77563950763279" lon="9.184186224421158"><ele>658.6</ele><time>2026-04-19T17:39:27Z</time></trkpt><trkpt lat="44.77575219564999" lon="9.184240478630246"><ele>658.2</ele><time>2026-04-19T17:39:28Z</time></trkpt><trkpt lat="44.775862028645214" lon="9.184294636909293"><ele>657.8000000000001</ele><time>2026-04-19T17:39:29Z</time></trkpt><trkpt lat="44.7759646643836" lon="9.184342012553001"><ele>657.4000000000001</ele><time>2026-04-19T17:39:30Z</time></trkpt><trkpt lat="44.77605974235392" lon="9.184376740386277"><ele>657.0</ele><time>2026-04-19T17:39:31Z</time></trkpt><trkpt lat="44.77614299522571" lon="9.184401249080308"><ele>655.3333333333334</ele><time>2026-04-19T17:39:32Z</time></trkpt><trkpt lat="44.77622057141866" lon="9.18439971868892"><ele>653.6666666666666</ele><time>2026-04-19T17:39:33Z</time></trkpt><trkpt lat="44.77629638770317" lon="9.184356989496951"><ele>652.0</ele><time>2026-04-19T17:39:34Z</time></trkpt><trkpt lat="44.77635061264781" lon="9.184281999731997"><ele>650.3333333333333</ele><time>2026-04-19T17:39:35Z</time></trkpt><trkpt lat="44.77638996818799" lon="9.18418842375625"><ele>648.6666666666666</ele><time>2026-04-19T17:39:36Z</time></trkpt><trkpt lat="44.7764180813117" lon="9.184064383115727"><ele>647.0</ele><time>2026-04-19T17:39:37Z</time></trkpt><trkpt lat="44.776435762596755" lon="9.183924715406599"><ele>647.0</ele><time>2026-04-19T17:39:38Z</time></trkpt><trkpt lat="44.77645787249012" lon="9.183761728014007"><ele>647.0</ele><time>2026-04-19T17:39:39Z</time></trkpt><trkpt lat="44.77645231351387" lon="9.183581073284946"><ele>647.0</ele><time>2026-04-19T17:39:40Z</time></trkpt><trkpt lat="44.77644077650272" lon="9.18341693957968"><ele>647.0</ele><time>2026-04-19T17:39:41Z</time></trkpt><trkpt lat="44.77644789675362" lon="9.183251054670047"><ele>646.8</ele><time>2026-04-19T17:39:42Z</time></trkpt><trkpt lat="44.77646098442136" lon="9.183093125832393"><ele>646.6</ele><time>2026-04-19T17:39:43Z</time></trkpt><trkpt lat="44.77647194720489" lon="9.18293947278454"><ele>646.4</ele><time>2026-04-19T17:39:44Z</time></trkpt><trkpt lat="44.77648642032692" lon="9.182804406373144"><ele>646.1999999999999</ele><time>2026-04-19T17:39:45Z</time></trkpt><trkpt lat="44.776503499749424" lon="9.182713187711917"><ele>646.0</ele><time>2026-04-19T17:39:46Z</time></trkpt><trkpt lat="44.7765490730027" lon="9.182579711882742"><ele>646.0</ele><time>2026-04-19T17:39:48Z</time></trkpt><trkpt lat="44.77664631984712" lon="9.182577604801917"><ele>646.0</ele><time>2026-04-19T17:39:50Z</time></trkpt><trkpt lat="44.77672296536683" lon="9.182544044971788"><ele>646.0</ele><time>2026-04-19T17:39:51Z</time></trkpt><trkpt lat="44.77681706600433" lon="9.182509369009583"><ele>646.0</ele><time>2026-04-19T17:39:51.999Z</time></trkpt><trkpt lat="44.7769334023234" lon="9.18246230731271"><ele>646.0</ele><time>2026-04-19T17:39:52.999Z</time></trkpt><trkpt lat="44.77704370940574" lon="9.18240563249931"><ele>647.4</ele><time>2026-04-19T17:39:53.999Z</time></trkpt><trkpt lat="44.77714049279877" lon="9.18237307673168"><ele>648.8</ele><time>2026-04-19T17:39:54.999Z</time></trkpt><trkpt lat="44.777216286846915" lon="9.182347331573121"><ele>650.1999999999999</ele><time>2026-04-19T17:39:55.999Z</time></trkpt><trkpt lat="44.777278745469154" lon="9.182362357204225"><ele>651.5999999999999</ele><time>2026-04-19T17:39:56.999Z</time></trkpt><trkpt lat="44.777386169319755" lon="9.182429257578985"><ele>653.0</ele><time>2026-04-19T17:39:58.999Z</time></trkpt><trkpt lat="44.7773580046703" lon="9.182606169272805"><ele>653.0</ele><time>2026-04-19T17:39:59.999Z</time></trkpt><trkpt lat="44.7773832253208" lon="9.182716476868794"><ele>653.0</ele><time>2026-04-19T17:40:01Z</time></trkpt><trkpt lat="44.77741560614729" lon="9.182866589132328"><ele>653.0</ele><time>2026-04-19T17:40:02Z</time></trkpt><trkpt lat="44.77745355051729" lon="9.183002950185825"><ele>653.0</ele><time>2026-04-19T17:40:03Z</time></trkpt><trkpt lat="44.7774925861747" lon="9.183114348669157"><ele>653.0</ele><time>2026-04-19T17:40:04Z</time></trkpt><trkpt lat="44.77755230223317" lon="9.183223093047118"><ele>652.25</ele><time>2026-04-19T17:40:05Z</time></trkpt><trkpt lat="44.77761580637027" lon="9.183371589378904"><ele>651.5</ele><time>2026-04-19T17:40:06Z</time></trkpt><trkpt lat="44.77767160527085" lon="9.183536298422066"><ele>650.75</ele><time>2026-04-19T17:40:07Z</time></trkpt><trkpt lat="44.7777516798922" lon="9.183670572909353"><ele>650.0</ele><time>2026-04-19T17:40:08Z</time></trkpt><trkpt lat="44.77780042068725" lon="9.183816002820452"><ele>650.2</ele><time>2026-04-19T17:40:09Z</time></trkpt><trkpt lat="44.77786077344938" lon="9.183943628921478"><ele>650.4</ele><time>2026-04-19T17:40:10Z</time></trkpt><trkpt lat="44.777934167730365" lon="9.184046995889126"><ele>650.5999999999999</ele><time>2026-04-19T17:40:11Z</time></trkpt><trkpt lat="44.777996457471055" lon="9.184153936382941"><ele>650.8</ele><time>2026-04-19T17:40:12Z</time></trkpt><trkpt lat="44.77805774050573" lon="9.184259346992228"><ele>651.0</ele><time>2026-04-19T17:40:13Z</time></trkpt><trkpt lat="44.77813605842479" lon="9.184350827495855"><ele>651.0</ele><time>2026-04-19T17:40:14Z</time></trkpt><trkpt lat="44.77822129047175" lon="9.184436585887275"><ele>651.0</ele><time>2026-04-19T17:40:15Z</time></trkpt><trkpt lat="44.77829441841739" lon="9.18449595965119"><ele>651.0</ele><time>2026-04-19T17:40:16Z</time></trkpt><trkpt lat="44.77835652484784" lon="9.18454826794015"><ele>651.0</ele><time>2026-04-19T17:40:17Z</time></trkpt><trkpt lat="44.778435357098545" lon="9.184513254119825"><ele>651.0</ele><time>2026-04-19T17:40:18Z</time></trkpt><trkpt lat="44.77854465715467" lon="9.184489389044652"><ele>652.4</ele><time>2026-04-19T17:40:19Z</time></trkpt><trkpt lat="44.778670445180964" lon="9.184448542257355"><ele>653.8</ele><time>2026-04-19T17:40:20Z</time></trkpt><trkpt lat="44.77877077501764" lon="9.18440272099781"><ele>655.1999999999999</ele><time>2026-04-19T17:40:21Z</time></trkpt><trkpt lat="44.77885548344724" lon="9.184359650837939"><ele>656.5999999999999</ele><time>2026-04-19T17:40:22Z</time></trkpt><trkpt lat="44.77892270971264" lon="9.184339882613957"><ele>658.0</ele><time>2026-04-19T17:40:23Z</time></trkpt><trkpt lat="44.7790203772702" lon="9.18438574303312"><ele>658.0</ele><time>2026-04-19T17:40:25Z</time></trkpt><trkpt lat="44.77905614566553" lon="9.184521666788825"><ele>658.0</ele><time>2026-04-19T17:40:27Z</time></trkpt><trkpt lat="44.7790059024531" lon="9.184601232333488"><ele>658.0</ele><time>2026-04-19T17:40:28Z</time></trkpt><trkpt lat="44.778938699347094" lon="9.184693084257125"><ele>658.0</ele><time>2026-04-19T17:40:29Z</time></trkpt><trkpt lat="44.77886771518696" lon="9.184819588191026"><ele>658.0</ele><time>2026-04-19T17:40:30Z</time></trkpt><trkpt lat="44.778791219900214" lon="9.184970511164757"><ele>658.4</ele><time>2026-04-19T17:40:31Z</time></trkpt><trkpt lat="44.778735136477074" lon="9.185112576589603"><ele>658.8</ele><time>2026-04-19T17:40:32Z</time></trkpt><trkpt lat="44.77871308868742" lon="9.18524846039544"><ele>659.2</ele><time>2026-04-19T17:40:33Z</time></trkpt><trkpt lat="44.77867830017236" lon="9.18537259434859"><ele>659.6</ele><time>2026-04-19T17:40:34Z</time></trkpt><trkpt lat="44.7786862983368" lon="9.185509611734245"><ele>660.0</ele><time>2026-04-19T17:40:35Z</time></trkpt><trkpt lat="44.77874204585759" lon="9.185650997317534"><ele>658.75</ele><time>2026-04-19T17:40:36Z</time></trkpt><trkpt lat="44.77879328255357" lon="9.185827429079799"><ele>657.5</ele><time>2026-04-19T17:40:37Z</time></trkpt><trkpt lat="44.77886178796328" lon="9.186006474761731"><ele>656.25</ele><time>2026-04-19T17:40:38Z</time></trkpt><trkpt lat="44.778946427466614" lon="9.186143714837995"><ele>655.0</ele><time>2026-04-19T17:40:39Z</time></trkpt><trkpt lat="44.77902778102907" lon="9.186283480270886"><ele>655.0</ele><time>2026-04-19T17:40:40Z</time></trkpt><trkpt lat="44.7791382682894" lon="9.186418259858364"><ele>655.0</ele><time>2026-04-19T17:40:41Z</time></trkpt><trkpt lat="44.77927527554101" lon="9.186555272333637"><ele>655.0</ele><time>2026-04-19T17:40:42Z</time></trkpt><trkpt lat="44.77941262892565" lon="9.186691624279597"><ele>653.75</ele><time>2026-04-19T17:40:43Z</time></trkpt><trkpt lat="44.779543063540956" lon="9.186809480221171"><ele>652.5</ele><time>2026-04-19T17:40:44Z</time></trkpt><trkpt lat="44.779661133950256" lon="9.18692215844961"><ele>651.25</ele><time>2026-04-19T17:40:45Z</time></trkpt><trkpt lat="44.77976051236744" lon="9.187011880068537"><ele>650.0</ele><time>2026-04-19T17:40:46Z</time></trkpt><trkpt lat="44.779845483368376" lon="9.187068076737287"><ele>650.0</ele><time>2026-04-19T17:40:47Z</time></trkpt><trkpt lat="44.77992501318891" lon="9.187096949657848"><ele>650.0</ele><time>2026-04-19T17:40:48Z</time></trkpt><trkpt lat="44.780025637797614" lon="9.187095449263252"><ele>650.0</ele><time>2026-04-19T17:40:49Z</time></trkpt><trkpt lat="44.78015071467914" lon="9.187062627410286"><ele>650.0</ele><time>2026-04-19T17:40:50Z</time></trkpt><trkpt lat="44.78027253534696" lon="9.18701298320742"><ele>650.0</ele><time>2026-04-19T17:40:51Z</time></trkpt><trkpt lat="44.780373592979934" lon="9.186956582670256"><ele>650.8333333333333</ele><time>2026-04-19T17:40:52Z</time></trkpt><trkpt lat="44.78044533024742" lon="9.186915102946367"><ele>651.6666666666666</ele><time>2026-04-19T17:40:53Z</time></trkpt><trkpt lat="44.78055113442038" lon="9.186957272604076"><ele>652.5</ele><time>2026-04-19T17:40:55Z</time></trkpt><trkpt lat="44.78058912905134" lon="9.1870426615427"><ele>653.3333333333334</ele><time>2026-04-19T17:40:56Z</time></trkpt><trkpt lat="44.78058765278525" lon="9.187146125074102"><ele>654.1666666666667</ele><time>2026-04-19T17:40:57Z</time></trkpt><trkpt lat="44.78059553639215" lon="9.18727153170833"><ele>655.0</ele><time>2026-04-19T17:40:58Z</time></trkpt><trkpt lat="44.780606987847804" lon="9.187416721198373"><ele>652.2</ele><time>2026-04-19T17:40:59Z</time></trkpt><trkpt lat="44.780583443705915" lon="9.187573281655855"><ele>649.4</ele><time>2026-04-19T17:41:00Z</time></trkpt><trkpt lat="44.7805717025976" lon="9.187712807144145"><ele>646.5999999999999</ele><time>2026-04-19T17:41:01Z</time></trkpt><trkpt lat="44.780559209776904" lon="9.187824018351339"><ele>643.8</ele><time>2026-04-19T17:41:02Z</time></trkpt><trkpt lat="44.78059180691696" lon="9.187937095648001"><ele>641.0</ele><time>2026-04-19T17:41:03Z</time></trkpt><trkpt lat="44.78067548771213" lon="9.188032277367915"><ele>641.0</ele><time>2026-04-19T17:41:04Z</time></trkpt><trkpt lat="44.78078948598039" lon="9.18811990383829"><ele>641.0</ele><time>2026-04-19T17:41:05Z</time></trkpt><trkpt lat="44.78093676662561" lon="9.18818093244264"><ele>641.0</ele><time>2026-04-19T17:41:06Z</time></trkpt><trkpt lat="44.78106649410366" lon="9.188239836531539"><ele>641.0</ele><time>2026-04-19T17:41:07Z</time></trkpt><trkpt lat="44.78116695822392" lon="9.188336314697795"><ele>639.8</ele><time>2026-04-19T17:41:08Z</time></trkpt><trkpt lat="44.781250843833064" lon="9.188454988798016"><ele>638.5999999999999</ele><time>2026-04-19T17:41:09Z</time></trkpt><trkpt lat="44.78132337627216" lon="9.188579153803923"><ele>637.4</ele><time>2026-04-19T17:41:10Z</time></trkpt><trkpt lat="44.78139881366595" lon="9.188671335653327"><ele>636.2</ele><time>2026-04-19T17:41:11Z</time></trkpt><trkpt lat="44.7814842065214" lon="9.188740262507036"><ele>635.0</ele><time>2026-04-19T17:41:12Z</time></trkpt><trkpt lat="44.781581480911896" lon="9.188761705040688"><ele>635.0</ele><time>2026-04-19T17:41:13Z</time></trkpt><trkpt lat="44.78169823496775" lon="9.188776427210774"><ele>635.0</ele><time>2026-04-19T17:41:14Z</time></trkpt><trkpt lat="44.78184210166514" lon="9.188714650533857"><ele>635.0</ele><time>2026-04-19T17:41:15Z</time></trkpt><trkpt lat="44.78199628266717" lon="9.188651104031468"><ele>635.0</ele><time>2026-04-19T17:41:16Z</time></trkpt><trkpt lat="44.78213375329648" lon="9.188615742905364"><ele>634.5</ele><time>2026-04-19T17:41:17Z</time></trkpt><trkpt lat="44.782262985783014" lon="9.188581767131401"><ele>634.0</ele><time>2026-04-19T17:41:18Z</time></trkpt><trkpt lat="44.78236026655354" lon="9.188561229851896"><ele>633.5</ele><time>2026-04-19T17:41:19Z</time></trkpt><trkpt lat="44.78247055708251" lon="9.18857328198729"><ele>633.0</ele><time>2026-04-19T17:41:21Z</time></trkpt><trkpt lat="44.782522326595256" lon="9.188713126710377"><ele>633.0</ele><time>2026-04-19T17:41:23Z</time></trkpt><trkpt lat="44.782497433049805" lon="9.188828411109778"><ele>633.0</ele><time>2026-04-19T17:41:24Z</time></trkpt><trkpt lat="44.78244665690631" lon="9.188942519966004"><ele>633.0</ele><time>2026-04-19T17:41:25Z</time></trkpt><trkpt lat="44.78236520649067" lon="9.189031140596192"><ele>633.0</ele><time>2026-04-19T17:41:26Z</time></trkpt><trkpt lat="44.78226831092382" lon="9.189069780056485"><ele>633.0</ele><time>2026-04-19T17:41:27Z</time></trkpt><trkpt lat="44.782169861520345" lon="9.189086716336123"><ele>631.4</ele><time>2026-04-19T17:41:28Z</time></trkpt><trkpt lat="44.782080486996435" lon="9.18911126122868"><ele>629.8</ele><time>2026-04-19T17:41:29Z</time></trkpt><trkpt lat="44.781999810626395" lon="9.189176588757693"><ele>628.2</ele><time>2026-04-19T17:41:30Z</time></trkpt><trkpt lat="44.78191468863022" lon="9.189271950598128"><ele>626.6</ele><time>2026-04-19T17:41:31Z</time></trkpt><trkpt lat="44.781825296516644" lon="9.189400211346106"><ele>625.0</ele><time>2026-04-19T17:41:32Z</time></trkpt><trkpt lat="44.78176050245275" lon="9.189505737001417"><ele>623.2</ele><time>2026-04-19T17:41:33Z</time></trkpt><trkpt lat="44.781722162834726" lon="9.189593694804852"><ele>621.4</ele><time>2026-04-19T17:41:34Z</time></trkpt><trkpt lat="44.781694178289136" lon="9.189678070519655"><ele>619.6</ele><time>2026-04-19T17:41:35Z</time></trkpt><trkpt lat="44.781724477869616" lon="9.189809551550644"><ele>617.8</ele><time>2026-04-19T17:41:36Z</time></trkpt><trkpt lat="44.78179210909459" lon="9.189931305601588"><ele>616.0</ele><time>2026-04-19T17:41:37Z</time></trkpt><trkpt lat="44.781893375790574" lon="9.190076947025844"><ele>616.0</ele><time>2026-04-19T17:41:38Z</time></trkpt><trkpt lat="44.78200463306379" lon="9.19019853353506"><ele>616.0</ele><time>2026-04-19T17:41:39Z</time></trkpt><trkpt lat="44.782134074524535" lon="9.190298632468922"><ele>616.0</ele><time>2026-04-19T17:41:40Z</time></trkpt><trkpt lat="44.78226205672159" lon="9.19038505864083"><ele>616.0</ele><time>2026-04-19T17:41:41Z</time></trkpt><trkpt lat="44.78238827362648" lon="9.19045645731267"><ele>616.0</ele><time>2026-04-19T17:41:42Z</time></trkpt><trkpt lat="44.78252879400514" lon="9.190500618873724"><ele>616.0</ele><time>2026-04-19T17:41:43Z</time></trkpt><trkpt lat="44.78267711305576" lon="9.19051905101009"><ele>616.0</ele><time>2026-04-19T17:41:44Z</time></trkpt><trkpt lat="44.78280835691434" lon="9.1905448313598"><ele>616.0</ele><time>2026-04-19T17:41:45Z</time></trkpt><trkpt lat="44.782918583577974" lon="9.19060509597252"><ele>610.75</ele><time>2026-04-19T17:41:46Z</time></trkpt><trkpt lat="44.78301880251944" lon="9.190699509884888"><ele>605.5</ele><time>2026-04-19T17:41:47Z</time></trkpt><trkpt lat="44.78310998055641" lon="9.190767426089336"><ele>600.25</ele><time>2026-04-19T17:41:48Z</time></trkpt><trkpt lat="44.78320119481572" lon="9.190812393449102"><ele>595.0</ele><time>2026-04-19T17:41:49Z</time></trkpt><trkpt lat="44.78333326942685" lon="9.190828099452625"><ele>595.0</ele><time>2026-04-19T17:41:50Z</time></trkpt><trkpt lat="44.7834644649182" lon="9.190854942407611"><ele>595.0</ele><time>2026-04-19T17:41:51Z</time></trkpt><trkpt lat="44.783590370246884" lon="9.190886176844758"><ele>595.0</ele><time>2026-04-19T17:41:52Z</time></trkpt><trkpt lat="44.78370679598379" lon="9.190886872481135"><ele>595.0</ele><time>2026-04-19T17:41:53Z</time></trkpt><trkpt lat="44.78382064466736" lon="9.190861051307463"><ele>596.0</ele><time>2026-04-19T17:41:54Z</time></trkpt><trkpt lat="44.78391531066029" lon="9.190807893101146"><ele>597.0</ele><time>2026-04-19T17:41:55Z</time></trkpt><trkpt lat="44.78399719091461" lon="9.190774418020254"><ele>598.0</ele><time>2026-04-19T17:41:56Z</time></trkpt><trkpt lat="44.78408590535103" lon="9.190826450589913"><ele>599.0</ele><time>2026-04-19T17:41:57.999Z</time></trkpt><trkpt lat="44.7841086379729" lon="9.191031514120352"><ele>600.0</ele><time>2026-04-19T17:41:59.999Z</time></trkpt><trkpt lat="44.784159418998705" lon="9.191186598488478"><ele>600.0</ele><time>2026-04-19T17:42:00.999Z</time></trkpt><trkpt lat="44.78422122586952" lon="9.19130757114268"><ele>600.0</ele><time>2026-04-19T17:42:01.999Z</time></trkpt><trkpt lat="44.78428399022052" lon="9.191402151390697"><ele>600.0</ele><time>2026-04-19T17:42:02.999Z</time></trkpt><trkpt lat="44.78436849977451" lon="9.19148596691795"><ele>600.0</ele><time>2026-04-19T17:42:03.999Z</time></trkpt><trkpt lat="44.784488610669904" lon="9.191543282345378"><ele>600.0</ele><time>2026-04-19T17:42:04.999Z</time></trkpt><trkpt lat="44.78462629042132" lon="9.191597298444071"><ele>600.0</ele><time>2026-04-19T17:42:05.999Z</time></trkpt><trkpt lat="44.78472533517549" lon="9.191642842640775"><ele>600.0</ele><time>2026-04-19T17:42:06.999Z</time></trkpt><trkpt lat="44.784787606088976" lon="9.191696417532453"><ele>600.0</ele><time>2026-04-19T17:42:07.999Z</time></trkpt><trkpt lat="44.78485223033332" lon="9.191831090117189"><ele>600.0</ele><time>2026-04-19T17:42:09.999Z</time></trkpt><trkpt lat="44.7848550916031" lon="9.191967019561066"><ele>600.0</ele><time>2026-04-19T17:42:10.999Z</time></trkpt><trkpt lat="44.78486889825643" lon="9.192160807943985"><ele>600.0</ele><time>2026-04-19T17:42:11.999Z</time></trkpt><trkpt lat="44.78487985194387" lon="9.192327482796676"><ele>600.0</ele><time>2026-04-19T17:42:12.999Z</time></trkpt><trkpt lat="44.78488982769117" lon="9.19246249641889"><ele>600.0</ele><time>2026-04-19T17:42:13.999Z</time></trkpt><trkpt lat="44.78490862663935" lon="9.19258338230044"><ele>600.0</ele><time>2026-04-19T17:42:14.999Z</time></trkpt><trkpt lat="44.78496522682095" lon="9.192695550530926"><ele>600.0</ele><time>2026-04-19T17:42:16Z</time></trkpt><trkpt lat="44.785042852401176" lon="9.192766586867718"><ele>598.2</ele><time>2026-04-19T17:42:17Z</time></trkpt><trkpt lat="44.78513123980319" lon="9.192778636289084"><ele>596.4</ele><time>2026-04-19T17:42:18Z</time></trkpt><trkpt lat="44.785227278329344" lon="9.192761905537472"><ele>594.6</ele><time>2026-04-19T17:42:19Z</time></trkpt><trkpt lat="44.785336777535385" lon="9.192742106899669"><ele>592.8</ele><time>2026-04-19T17:42:20Z</time></trkpt><trkpt lat="44.785437921323975" lon="9.192754531579213"><ele>591.0</ele><time>2026-04-19T17:42:21Z</time></trkpt><trkpt lat="44.785526051461225" lon="9.192796066886293"><ele>591.0</ele><time>2026-04-19T17:42:22Z</time></trkpt><trkpt lat="44.78560927828679" lon="9.192861020954394"><ele>591.0</ele><time>2026-04-19T17:42:23Z</time></trkpt><trkpt lat="44.78569454085039" lon="9.192947753832367"><ele>591.0</ele><time>2026-04-19T17:42:24Z</time></trkpt><trkpt lat="44.7857732667342" lon="9.193069876227446"><ele>591.0</ele><time>2026-04-19T17:42:25Z</time></trkpt><trkpt lat="44.78586578990965" lon="9.193186698751493"><ele>591.0</ele><time>2026-04-19T17:42:26Z</time></trkpt><trkpt lat="44.78595929732809" lon="9.193295278420518"><ele>584.0</ele><time>2026-04-19T17:42:27Z</time></trkpt><trkpt lat="44.78606026085692" lon="9.193406910558819"><ele>577.0</ele><time>2026-04-19T17:42:28Z</time></trkpt><trkpt lat="44.78616734091755" lon="9.193495538469582"><ele>570.0</ele><time>2026-04-19T17:42:29Z</time></trkpt><trkpt lat="44.78628232009076" lon="9.193555405961225"><ele>563.0</ele><time>2026-04-19T17:42:30Z</time></trkpt><trkpt lat="44.786407551142034" lon="9.193601226221043"><ele>563.0</ele><time>2026-04-19T17:42:31Z</time></trkpt><trkpt lat="44.78655403371269" lon="9.193654408073524"><ele>563.0</ele><time>2026-04-19T17:42:32Z</time></trkpt><trkpt lat="44.78672410491318" lon="9.193716771710935"><ele>563.0</ele><time>2026-04-19T17:42:33Z</time></trkpt><trkpt lat="44.78690646524515" lon="9.193789750718448"><ele>563.75</ele><time>2026-04-19T17:42:34Z</time></trkpt><trkpt lat="44.78704603083421" lon="9.19384466141753"><ele>564.5</ele><time>2026-04-19T17:42:35Z</time></trkpt><trkpt lat="44.78717406269989" lon="9.19388153279584"><ele>565.25</ele><time>2026-04-19T17:42:36Z</time></trkpt><trkpt lat="44.787303253295505" lon="9.193904180330446"><ele>566.0</ele><time>2026-04-19T17:42:37Z</time></trkpt><trkpt lat="44.78744403061349" lon="9.193918405928386"><ele>566.0</ele><time>2026-04-19T17:42:38Z</time></trkpt><trkpt lat="44.787588948207194" lon="9.19391499759965"><ele>566.0</ele><time>2026-04-19T17:42:39Z</time></trkpt><trkpt lat="44.787723863113214" lon="9.193902640481433"><ele>566.0</ele><time>2026-04-19T17:42:40Z</time></trkpt><trkpt lat="44.78784705721278" lon="9.193916698006669"><ele>566.0</ele><time>2026-04-19T17:42:41Z</time></trkpt><trkpt lat="44.78798054750819" lon="9.193945647580929"><ele>566.25</ele><time>2026-04-19T17:42:42Z</time></trkpt><trkpt lat="44.78811696673021" lon="9.193977340512038"><ele>566.5</ele><time>2026-04-19T17:42:43Z</time></trkpt><trkpt lat="44.78822067410544" lon="9.19400564365301"><ele>566.75</ele><time>2026-04-19T17:42:44Z</time></trkpt><trkpt lat="44.788301667281544" lon="9.194045195642769"><ele>567.0</ele><time>2026-04-19T17:42:45Z</time></trkpt><trkpt lat="44.78837510110566" lon="9.194190502404155"><ele>563.6</ele><time>2026-04-19T17:42:47Z</time></trkpt><trkpt lat="44.78841579476304" lon="9.194303523649582"><ele>560.2</ele><time>2026-04-19T17:42:48Z</time></trkpt><trkpt lat="44.788494727935024" lon="9.194389388753917"><ele>556.8</ele><time>2026-04-19T17:42:49Z</time></trkpt><trkpt lat="44.78859696978041" lon="9.19443510903985"><ele>553.4</ele><time>2026-04-19T17:42:50Z</time></trkpt><trkpt lat="44.78870442277485" lon="9.194451333451594"><ele>550.0</ele><time>2026-04-19T17:42:51Z</time></trkpt><trkpt lat="44.78881916198648" lon="9.194434685371746"><ele>549.6</ele><time>2026-04-19T17:42:52Z</time></trkpt><trkpt lat="44.78894644045561" lon="9.194392299941189"><ele>549.2</ele><time>2026-04-19T17:42:53Z</time></trkpt><trkpt lat="44.78902984286259" lon="9.194339859721214"><ele>548.8</ele><time>2026-04-19T17:42:54Z</time></trkpt><trkpt lat="44.78909819637023" lon="9.194196649230541"><ele>548.4</ele><time>2026-04-19T17:42:56Z</time></trkpt><trkpt lat="44.7891089568108" lon="9.19407894312532"><ele>548.0</ele><time>2026-04-19T17:42:57Z</time></trkpt><trkpt lat="44.78913063143893" lon="9.193944596391043"><ele>547.8</ele><time>2026-04-19T17:42:58Z</time></trkpt><trkpt lat="44.789166101583994" lon="9.193846159609604"><ele>547.5999999999999</ele><time>2026-04-19T17:42:59Z</time></trkpt><trkpt lat="44.78926758423719" lon="9.19372544863467"><ele>547.4000000000001</ele><time>2026-04-19T17:43:01Z</time></trkpt><trkpt lat="44.78934650936148" lon="9.193706931271178"><ele>547.2</ele><time>2026-04-19T17:43:02Z</time></trkpt><trkpt lat="44.789449391462135" lon="9.19370637319036"><ele>547.0</ele><time>2026-04-19T17:43:03Z</time></trkpt><trkpt lat="44.789591746308616" lon="9.193677468614775"><ele>547.0</ele><time>2026-04-19T17:43:04Z</time></trkpt><trkpt lat="44.78973983570203" lon="9.193620888627619"><ele>547.0</ele><time>2026-04-19T17:43:05Z</time></trkpt><trkpt lat="44.789892424359635" lon="9.193548743239555"><ele>547.0</ele><time>2026-04-19T17:43:06Z</time></trkpt><trkpt lat="44.790033264135204" lon="9.193496446414757"><ele>547.0</ele><time>2026-04-19T17:43:07Z</time></trkpt><trkpt lat="44.79014758969588" lon="9.193480508442198"><ele>547.0</ele><time>2026-04-19T17:43:08Z</time></trkpt><trkpt lat="44.790241695747156" lon="9.193456884574804"><ele>547.0</ele><time>2026-04-19T17:43:09Z</time></trkpt><trkpt lat="44.79032649280716" lon="9.193433646114617"><ele>547.0</ele><time>2026-04-19T17:43:10Z</time></trkpt><trkpt lat="44.79038803127117" lon="9.193333466199734"><ele>547.0</ele><time>2026-04-19T17:43:11Z</time></trkpt><trkpt lat="44.79046597026228" lon="9.193205746149824"><ele>547.5</ele><time>2026-04-19T17:43:12Z</time></trkpt><trkpt lat="44.79052641075707" lon="9.193051013917822"><ele>548.0</ele><time>2026-04-19T17:43:13Z</time></trkpt><trkpt lat="44.7905840006227" lon="9.192916951569586"><ele>548.5</ele><time>2026-04-19T17:43:14Z</time></trkpt><trkpt lat="44.790674304566025" lon="9.192825729140095"><ele>549.0</ele><time>2026-04-19T17:43:15Z</time></trkpt><trkpt lat="44.79077368034945" lon="9.192747285434194"><ele>549.0</ele><time>2026-04-19T17:43:16Z</time></trkpt><trkpt lat="44.79089677259243" lon="9.192663380597814"><ele>549.0</ele><time>2026-04-19T17:43:17Z</time></trkpt><trkpt lat="44.79100901261815" lon="9.192608936602408"><ele>549.0</ele><time>2026-04-19T17:43:18Z</time></trkpt><trkpt lat="44.7910936216894" lon="9.192600242924103"><ele>549.0</ele><time>2026-04-19T17:43:19Z</time></trkpt><trkpt lat="44.7911872467588" lon="9.192639351701862"><ele>549.0</ele><time>2026-04-19T17:43:20Z</time></trkpt><trkpt lat="44.791287369132434" lon="9.192721623775242"><ele>547.0</ele><time>2026-04-19T17:43:21Z</time></trkpt><trkpt lat="44.79138183487452" lon="9.192816716190485"><ele>545.0</ele><time>2026-04-19T17:43:22Z</time></trkpt><trkpt lat="44.79147524031553" lon="9.192885037806521"><ele>543.0</ele><time>2026-04-19T17:43:23Z</time></trkpt><trkpt lat="44.79156299138619" lon="9.192915334725775"><ele>541.0</ele><time>2026-04-19T17:43:24Z</time></trkpt><trkpt lat="44.79166010995865" lon="9.19289476895619"><ele>539.0</ele><time>2026-04-19T17:43:25Z</time></trkpt><trkpt lat="44.791778967483964" lon="9.19281588322135"><ele>536.25</ele><time>2026-04-19T17:43:26Z</time></trkpt><trkpt lat="44.79190276313431" lon="9.192709640440723"><ele>533.5</ele><time>2026-04-19T17:43:27Z</time></trkpt><trkpt lat="44.792008046663796" lon="9.192625714550012"><ele>530.75</ele><time>2026-04-19T17:43:28Z</time></trkpt><trkpt lat="44.79210083095078" lon="9.192571768270389"><ele>528.0</ele><time>2026-04-19T17:43:29Z</time></trkpt><trkpt lat="44.792196000334464" lon="9.192548438883794"><ele>528.0</ele><time>2026-04-19T17:43:30Z</time></trkpt><trkpt lat="44.79231423271358" lon="9.192554512485009"><ele>528.0</ele><time>2026-04-19T17:43:31Z</time></trkpt><trkpt lat="44.79244291641885" lon="9.19254924296398"><ele>528.0</ele><time>2026-04-19T17:43:32Z</time></trkpt><trkpt lat="44.79254613317746" lon="9.192533729882364"><ele>528.0</ele><time>2026-04-19T17:43:33Z</time></trkpt><trkpt lat="44.79264841384646" lon="9.192496069443408"><ele>528.1999999999999</ele><time>2026-04-19T17:43:34Z</time></trkpt><trkpt lat="44.79274429944825" lon="9.192460218823548"><ele>528.4</ele><time>2026-04-19T17:43:35Z</time></trkpt><trkpt lat="44.79280031577611" lon="9.192358526278674"><ele>528.5999999999999</ele><time>2026-04-19T17:43:36Z</time></trkpt><trkpt lat="44.79284341223918" lon="9.192260638512868"><ele>528.8</ele><time>2026-04-19T17:43:37Z</time></trkpt><trkpt lat="44.792895078165934" lon="9.192141436649015"><ele>529.0</ele><time>2026-04-19T17:43:38Z</time></trkpt><trkpt lat="44.79292389237153" lon="9.192019001808204"><ele>529.0</ele><time>2026-04-19T17:43:39Z</time></trkpt><trkpt lat="44.79295371293228" lon="9.191937703169787"><ele>529.0</ele><time>2026-04-19T17:43:40Z</time></trkpt><trkpt lat="44.79301922784092" lon="9.191893582013957"><ele>529.0</ele><time>2026-04-19T17:43:41Z</time></trkpt><trkpt lat="44.79310217309901" lon="9.191898458532412"><ele>529.0</ele><time>2026-04-19T17:43:42Z</time></trkpt><trkpt lat="44.79320510569063" lon="9.191893249112722"><ele>529.0</ele><time>2026-04-19T17:43:43Z</time></trkpt><trkpt lat="44.79332780506905" lon="9.191828928354507"><ele>529.0</ele><time>2026-04-19T17:43:44Z</time></trkpt><trkpt lat="44.793435383606436" lon="9.1917125973146"><ele>529.0</ele><time>2026-04-19T17:43:45Z</time></trkpt><trkpt lat="44.793536884654486" lon="9.191560204067724"><ele>529.0</ele><time>2026-04-19T17:43:46Z</time></trkpt><trkpt lat="44.793633535977" lon="9.191451821400927"><ele>529.0</ele><time>2026-04-19T17:43:47Z</time></trkpt><trkpt lat="44.7937167989404" lon="9.191338056384268"><ele>528.25</ele><time>2026-04-19T17:43:48Z</time></trkpt><trkpt lat="44.79380435255359" lon="9.191205677231919"><ele>527.5</ele><time>2026-04-19T17:43:49Z</time></trkpt><trkpt lat="44.793942283917644" lon="9.191129019659149"><ele>526.75</ele><time>2026-04-19T17:43:50Z</time></trkpt><trkpt lat="44.794057139289" lon="9.191006146494887"><ele>526.0</ele><time>2026-04-19T17:43:51Z</time></trkpt><trkpt lat="44.794156612350385" lon="9.190885343658646"><ele>526.0</ele><time>2026-04-19T17:43:52Z</time></trkpt><trkpt lat="44.79426374043092" lon="9.190778021201938"><ele>526.0</ele><time>2026-04-19T17:43:53Z</time></trkpt><trkpt lat="44.79437209430571" lon="9.190666054050132"><ele>526.0</ele><time>2026-04-19T17:43:54Z</time></trkpt><trkpt lat="44.794484057920705" lon="9.190578451837911"><ele>526.0</ele><time>2026-04-19T17:43:55Z</time></trkpt><trkpt lat="44.794586764224725" lon="9.190503549515553"><ele>523.25</ele><time>2026-04-19T17:43:56Z</time></trkpt><trkpt lat="44.794678640956725" lon="9.190427916928599"><ele>520.5</ele><time>2026-04-19T17:43:57Z</time></trkpt><trkpt lat="44.79478526648523" lon="9.190343530843155"><ele>517.75</ele><time>2026-04-19T17:43:58Z</time></trkpt><trkpt lat="44.794894500647" lon="9.190270536526759"><ele>515.0</ele><time>2026-04-19T17:43:59Z</time></trkpt><trkpt lat="44.79501407335582" lon="9.190224633085531"><ele>515.0</ele><time>2026-04-19T17:44:00Z</time></trkpt><trkpt lat="44.79512988354755" lon="9.190188651516014"><ele>515.0</ele><time>2026-04-19T17:44:01Z</time></trkpt><trkpt lat="44.79527992002488" lon="9.19017509095823"><ele>515.0</ele><time>2026-04-19T17:44:02Z</time></trkpt><trkpt lat="44.79542412206639" lon="9.190134110874537"><ele>515.0</ele><time>2026-04-19T17:44:03Z</time></trkpt><trkpt lat="44.7955779789259" lon="9.190077136465206"><ele>514.25</ele><time>2026-04-19T17:44:03.999Z</time></trkpt><trkpt lat="44.795721139910384" lon="9.190029145478515"><ele>513.5</ele><time>2026-04-19T17:44:04.999Z</time></trkpt><trkpt lat="44.79585030568471" lon="9.189998598324342"><ele>512.75</ele><time>2026-04-19T17:44:05.999Z</time></trkpt><trkpt lat="44.79596988600509" lon="9.189926144590638"><ele>512.0</ele><time>2026-04-19T17:44:06.999Z</time></trkpt><trkpt lat="44.796080448198616" lon="9.189834737908985"><ele>510.3333333333333</ele><time>2026-04-19T17:44:07.999Z</time></trkpt><trkpt lat="44.7961914113785" lon="9.189773641463283"><ele>508.66666666666663</ele><time>2026-04-19T17:44:08.999Z</time></trkpt><trkpt lat="44.796270538743045" lon="9.18972446284875"><ele>507.0</ele><time>2026-04-19T17:44:09.999Z</time></trkpt><trkpt lat="44.796323005725164" lon="9.18965669627749"><ele>505.33333333333337</ele><time>2026-04-19T17:44:10.999Z</time></trkpt><trkpt lat="44.79636402516543" lon="9.189557148988827"><ele>503.6666666666667</ele><time>2026-04-19T17:44:11.999Z</time></trkpt><trkpt lat="44.796374387878735" lon="9.189431100744361"><ele>502.0</ele><time>2026-04-19T17:44:12.999Z</time></trkpt><trkpt lat="44.796404868960856" lon="9.18928558216098"><ele>502.00000000000006</ele><time>2026-04-19T17:44:13.999Z</time></trkpt><trkpt lat="44.79641447984075" lon="9.189144797754262"><ele>502.0</ele><time>2026-04-19T17:44:14.999Z</time></trkpt><trkpt lat="44.796454768662485" lon="9.18902431611925"><ele>502.0</ele><time>2026-04-19T17:44:15.999Z</time></trkpt><trkpt lat="44.79649678743539" lon="9.188929202358306"><ele>502.0</ele><time>2026-04-19T17:44:16.999Z</time></trkpt><trkpt lat="44.79655455210976" lon="9.188869948520386"><ele>502.00000000000006</ele><time>2026-04-19T17:44:17.999Z</time></trkpt><trkpt lat="44.796635851880254" lon="9.188826669263815"><ele>502.0</ele><time>2026-04-19T17:44:18.999Z</time></trkpt><trkpt lat="44.79674209645636" lon="9.188801415043274"><ele>500.0</ele><time>2026-04-19T17:44:19.999Z</time></trkpt><trkpt lat="44.79686871336635" lon="9.18882138860705"><ele>498.0</ele><time>2026-04-19T17:44:20.999Z</time></trkpt><trkpt lat="44.79700849086444" lon="9.188833307342039"><ele>496.0</ele><time>2026-04-19T17:44:21.999Z</time></trkpt><trkpt lat="44.79712173175462" lon="9.188830026484553"><ele>494.0</ele><time>2026-04-19T17:44:23Z</time></trkpt><trkpt lat="44.797217044616275" lon="9.188796302521915"><ele>494.0</ele><time>2026-04-19T17:44:24Z</time></trkpt><trkpt lat="44.79732569118356" lon="9.188692126417367"><ele>494.0</ele><time>2026-04-19T17:44:25Z</time></trkpt><trkpt lat="44.79745519932398" lon="9.188549631606218"><ele>494.0</ele><time>2026-04-19T17:44:26Z</time></trkpt><trkpt lat="44.79760615866027" lon="9.188422018291355"><ele>493.75</ele><time>2026-04-19T17:44:27Z</time></trkpt><trkpt lat="44.79775070115885" lon="9.18833151953111"><ele>493.5</ele><time>2026-04-19T17:44:28Z</time></trkpt><trkpt lat="44.79788596336596" lon="9.18826129007555"><ele>493.25</ele><time>2026-04-19T17:44:29Z</time></trkpt><trkpt lat="44.79798486332423" lon="9.188183928887916"><ele>493.0</ele><time>2026-04-19T17:44:30Z</time></trkpt><trkpt lat="44.79807290479049" lon="9.188102271834639"><ele>491.2</ele><time>2026-04-19T17:44:31Z</time></trkpt><trkpt lat="44.79816078519693" lon="9.187977454237604"><ele>489.4</ele><time>2026-04-19T17:44:32Z</time></trkpt><trkpt lat="44.79824448367018" lon="9.18786977404199"><ele>487.59999999999997</ele><time>2026-04-19T17:44:33Z</time></trkpt><trkpt lat="44.79834121957748" lon="9.187808661872767"><ele>485.79999999999995</ele><time>2026-04-19T17:44:34Z</time></trkpt><trkpt lat="44.798434514509324" lon="9.187773844476991"><ele>484.0</ele><time>2026-04-19T17:44:35Z</time></trkpt><trkpt lat="44.79852414118361" lon="9.187715474943902"><ele>484.0</ele><time>2026-04-19T17:44:36Z</time></trkpt><trkpt lat="44.79861563301875" lon="9.187609459516192"><ele>484.0</ele><time>2026-04-19T17:44:37Z</time></trkpt><trkpt lat="44.79870821300181" lon="9.187453071408672"><ele>484.0</ele><time>2026-04-19T17:44:38Z</time></trkpt><trkpt lat="44.798781779992325" lon="9.187325270414972"><ele>484.0</ele><time>2026-04-19T17:44:39Z</time></trkpt><trkpt lat="44.798833939552864" lon="9.187254975454572"><ele>484.00000000000006</ele><time>2026-04-19T17:44:40Z</time></trkpt><trkpt lat="44.79889295549328" lon="9.187194755380286"><ele>484.0</ele><time>2026-04-19T17:44:41Z</time></trkpt><trkpt lat="44.79895809205963" lon="9.187173722558528"><ele>484.0</ele><time>2026-04-19T17:44:42Z</time></trkpt><trkpt lat="44.79902726384295" lon="9.187203682396262"><ele>484.0</ele><time>2026-04-19T17:44:43Z</time></trkpt><trkpt lat="44.79911404330233" lon="9.187296684019717"><ele>484.00000000000006</ele><time>2026-04-19T17:44:44Z</time></trkpt><trkpt lat="44.7992050574516" lon="9.187366514156414"><ele>484.0</ele><time>2026-04-19T17:44:45Z</time></trkpt><trkpt lat="44.79928680833169" lon="9.187400730505107"><ele>483.79999999999995</ele><time>2026-04-19T17:44:46Z</time></trkpt><trkpt lat="44.79936504403621" lon="9.187400158694551"><ele>483.59999999999997</ele><time>2026-04-19T17:44:47Z</time></trkpt><trkpt lat="44.79943918348205" lon="9.187360593119255"><ele>483.4</ele><time>2026-04-19T17:44:48Z</time></trkpt><trkpt lat="44.79953114311134" lon="9.187280297321132"><ele>483.2</ele><time>2026-04-19T17:44:49Z</time></trkpt><trkpt lat="44.79962910777235" lon="9.187124813368769"><ele>483.0</ele><time>2026-04-19T17:44:50Z</time></trkpt><trkpt lat="44.799753239346245" lon="9.186969505081604"><ele>482.25</ele><time>2026-04-19T17:44:51Z</time></trkpt><trkpt lat="44.79987632573447" lon="9.186837828305542"><ele>481.5</ele><time>2026-04-19T17:44:52Z</time></trkpt><trkpt lat="44.799980995710186" lon="9.186757749639233"><ele>480.75</ele><time>2026-04-19T17:44:53Z</time></trkpt><trkpt lat="44.80005532347079" lon="9.186660806101443"><ele>480.0</ele><time>2026-04-19T17:44:54Z</time></trkpt><trkpt lat="44.80011661118663" lon="9.186559567422591"><ele>481.5</ele><time>2026-04-19T17:44:55Z</time></trkpt><trkpt lat="44.80015407263311" lon="9.186396418590947"><ele>483.0</ele><time>2026-04-19T17:44:56Z</time></trkpt><trkpt lat="44.800197443504636" lon="9.186216991758364"><ele>484.5</ele><time>2026-04-19T17:44:57Z</time></trkpt><trkpt lat="44.8002527554058" lon="9.186006002869014"><ele>486.0</ele><time>2026-04-19T17:44:58Z</time></trkpt><trkpt lat="44.800316133654114" lon="9.185812239843058"><ele>481.0</ele><time>2026-04-19T17:44:59Z</time></trkpt><trkpt lat="44.80037111515249" lon="9.185644291058733"><ele>476.0</ele><time>2026-04-19T17:45:00Z</time></trkpt><trkpt lat="44.80042126374978" lon="9.18550607673063"><ele>471.0</ele><time>2026-04-19T17:45:01Z</time></trkpt><trkpt lat="44.80043466467303" lon="9.185339138358561"><ele>466.0</ele><time>2026-04-19T17:45:02Z</time></trkpt><trkpt lat="44.800430227149285" lon="9.185174318421348"><ele>466.00000000000006</ele><time>2026-04-19T17:45:03Z</time></trkpt><trkpt lat="44.80046831383292" lon="9.18502090088599"><ele>466.0</ele><time>2026-04-19T17:45:04Z</time></trkpt><trkpt lat="44.800537887292265" lon="9.184929633402563"><ele>466.0</ele><time>2026-04-19T17:45:05Z</time></trkpt><trkpt lat="44.800573852876994" lon="9.18485234155421"><ele>466.0</ele><time>2026-04-19T17:45:06Z</time></trkpt><trkpt lat="44.80065292075732" lon="9.184808501591798"><ele>466.00000000000006</ele><time>2026-04-19T17:45:08Z</time></trkpt><trkpt lat="44.8007281729619" lon="9.184838693213583"><ele>466.0</ele><time>2026-04-19T17:45:22Z</time></trkpt><trkpt lat="44.80079852123639" lon="9.184890687171782"><ele>466.0</ele><time>2026-04-19T17:45:23Z</time></trkpt><trkpt lat="44.80087866243852" lon="9.184947239883252"><ele>466.0</ele><time>2026-04-19T17:45:24Z</time></trkpt><trkpt lat="44.80098101097537" lon="9.184988405235039"><ele>466.0</ele><time>2026-04-19T17:45:25Z</time></trkpt><trkpt lat="44.80113125779366" lon="9.185019393644254"><ele>466.0</ele><time>2026-04-19T17:45:26Z</time></trkpt><trkpt lat="44.80127708519165" lon="9.184996478357242"><ele>465.6666666666667</ele><time>2026-04-19T17:45:27Z</time></trkpt><trkpt lat="44.80144067904185" lon="9.184914972584437"><ele>465.33333333333337</ele><time>2026-04-19T17:45:28Z</time></trkpt><trkpt lat="44.801617196201114" lon="9.184825920026885"><ele>465.0</ele><time>2026-04-19T17:45:29Z</time></trkpt><trkpt lat="44.80177806708025" lon="9.184758211584999"><ele>470.75</ele><time>2026-04-19T17:45:30Z</time></trkpt><trkpt lat="44.801929525701425" lon="9.184707153724641"><ele>476.5</ele><time>2026-04-19T17:45:31Z</time></trkpt><trkpt lat="44.80206814359044" lon="9.184674977693355"><ele>482.25</ele><time>2026-04-19T17:45:32Z</time></trkpt><trkpt lat="44.80217450074999" lon="9.18470146211851"><ele>488.0</ele><time>2026-04-19T17:45:33Z</time></trkpt><trkpt lat="44.8022938197825" lon="9.184738002210013"><ele>488.0</ele><time>2026-04-19T17:45:34Z</time></trkpt><trkpt lat="44.80241199650605" lon="9.184819504988457"><ele>488.0</ele><time>2026-04-19T17:45:35Z</time></trkpt><trkpt lat="44.8025137937664" lon="9.184910808614687"><ele>488.0</ele><time>2026-04-19T17:45:36Z</time></trkpt><trkpt lat="44.80261597276675" lon="9.184951674274771"><ele>488.0</ele><time>2026-04-19T17:45:37Z</time></trkpt><trkpt lat="44.8027351991186" lon="9.184932345605123"><ele>488.75</ele><time>2026-04-19T17:45:38Z</time></trkpt><trkpt lat="44.802872701511035" lon="9.184853059627516"><ele>489.5</ele><time>2026-04-19T17:45:39Z</time></trkpt><trkpt lat="44.802999686338175" lon="9.184795344696989"><ele>490.25</ele><time>2026-04-19T17:45:40Z</time></trkpt><trkpt lat="44.80312502863953" lon="9.18477626888388"><ele>491.0</ele><time>2026-04-19T17:45:41Z</time></trkpt><trkpt lat="44.80324410610707" lon="9.184793062703344"><ele>491.0</ele><time>2026-04-19T17:45:42Z</time></trkpt><trkpt lat="44.80335946604007" lon="9.184813069232769"><ele>491.0</ele><time>2026-04-19T17:45:43Z</time></trkpt><trkpt lat="44.80348838758572" lon="9.184883278180811"><ele>491.0</ele><time>2026-04-19T17:45:44Z</time></trkpt><trkpt lat="44.8036152728739" lon="9.18494599057507"><ele>491.0</ele><time>2026-04-19T17:45:45Z</time></trkpt><trkpt lat="44.80374691107416" lon="9.18502270514259"><ele>482.3333333333333</ele><time>2026-04-19T17:45:46Z</time></trkpt><trkpt lat="44.80388428122212" lon="9.185075388843044"><ele>473.66666666666663</ele><time>2026-04-19T17:45:47Z</time></trkpt><trkpt lat="44.80402880608653" lon="9.185134851364108"><ele>465.0</ele><time>2026-04-19T17:45:48Z</time></trkpt><trkpt lat="44.8041867728898" lon="9.185173587347624"><ele>465.25</ele><time>2026-04-19T17:45:49Z</time></trkpt><trkpt lat="44.80434556975653" lon="9.185190698793514"><ele>465.5</ele><time>2026-04-19T17:45:50Z</time></trkpt><trkpt lat="44.804490255122445" lon="9.185231955959273"><ele>465.75</ele><time>2026-04-19T17:45:51Z</time></trkpt><trkpt lat="44.80462293125891" lon="9.185274952848191"><ele>466.0</ele><time>2026-04-19T17:45:52Z</time></trkpt><trkpt lat="44.80475356479442" lon="9.185298787881381"><ele>466.0</ele><time>2026-04-19T17:45:53Z</time></trkpt><trkpt lat="44.804882822407" lon="9.185326574051867"><ele>466.0</ele><time>2026-04-19T17:45:54Z</time></trkpt><trkpt lat="44.80501175201478" lon="9.185333861315886"><ele>466.0</ele><time>2026-04-19T17:45:55Z</time></trkpt><trkpt lat="44.805140141178775" lon="9.1853451856332"><ele>466.0</ele><time>2026-04-19T17:45:56Z</time></trkpt><trkpt lat="44.805278409445094" lon="9.185271347264019"><ele>463.33333333333337</ele><time>2026-04-19T17:45:57Z</time></trkpt><trkpt lat="44.80542674903393" lon="9.185169946528045"><ele>460.66666666666663</ele><time>2026-04-19T17:45:58Z</time></trkpt><trkpt lat="44.80556796707836" lon="9.185071459629453"><ele>458.0</ele><time>2026-04-19T17:45:59Z</time></trkpt><trkpt lat="44.805707053118354" lon="9.185008109222906"><ele>458.0</ele><time>2026-04-19T17:46:00Z</time></trkpt><trkpt lat="44.80585437378442" lon="9.184992916071357"><ele>458.0</ele><time>2026-04-19T17:46:01Z</time></trkpt><trkpt lat="44.80600365119075" lon="9.185006826911597"><ele>458.0</ele><time>2026-04-19T17:46:02Z</time></trkpt><trkpt lat="44.80615164514342" lon="9.18503267050757"><ele>458.0</ele><time>2026-04-19T17:46:03Z</time></trkpt><trkpt lat="44.80628161963334" lon="9.18508990349641"><ele>457.0</ele><time>2026-04-19T17:46:04Z</time></trkpt><trkpt lat="44.80641525817835" lon="9.18518846691297"><ele>456.0</ele><time>2026-04-19T17:46:05Z</time></trkpt><trkpt lat="44.80655563560346" lon="9.185314813248914"><ele>455.0</ele><time>2026-04-19T17:46:06Z</time></trkpt><trkpt lat="44.80671359449289" lon="9.1854734412156"><ele>455.5</ele><time>2026-04-19T17:46:07Z</time></trkpt><trkpt lat="44.80689925574671" lon="9.185647084213713"><ele>456.0</ele><time>2026-04-19T17:46:08Z</time></trkpt><trkpt lat="44.80708765868225" lon="9.185825690081906"><ele>453.0</ele><time>2026-04-19T17:46:09Z</time></trkpt><trkpt lat="44.80726101358565" lon="9.185991731538683"><ele>450.0</ele><time>2026-04-19T17:46:10Z</time></trkpt><trkpt lat="44.80742683685325" lon="9.186154041074055"><ele>447.0</ele><time>2026-04-19T17:46:11Z</time></trkpt><trkpt lat="44.807588341373076" lon="9.186308724028203"><ele>446.0</ele><time>2026-04-19T17:46:12Z</time></trkpt><trkpt lat="44.807744355589605" lon="9.186457107197219"><ele>445.0</ele><time>2026-04-19T17:46:13Z</time></trkpt><trkpt lat="44.80789850606698" lon="9.186599789841503"><ele>444.0</ele><time>2026-04-19T17:46:14Z</time></trkpt><trkpt lat="44.808049338853344" lon="9.18674247118016"><ele>444.0</ele><time>2026-04-19T17:46:15Z</time></trkpt><trkpt lat="44.80820697325607" lon="9.186863749762649"><ele>444.0</ele><time>2026-04-19T17:46:16Z</time></trkpt><trkpt lat="44.808377085126935" lon="9.187003375043998"><ele>444.0</ele><time>2026-04-19T17:46:17Z</time></trkpt><trkpt lat="44.808560187502614" lon="9.187106254339227"><ele>445.66666666666663</ele><time>2026-04-19T17:46:18Z</time></trkpt><trkpt lat="44.8087338333202" lon="9.187180772516857"><ele>447.3333333333333</ele><time>2026-04-19T17:46:19Z</time></trkpt><trkpt lat="44.808895696398" lon="9.187281217468886"><ele>449.0</ele><time>2026-04-19T17:46:20Z</time></trkpt><trkpt lat="44.80904320550965" lon="9.187392550422262"><ele>450.0</ele><time>2026-04-19T17:46:21Z</time></trkpt><trkpt lat="44.80918746038232" lon="9.187526564915308"><ele>451.0</ele><time>2026-04-19T17:46:22Z</time></trkpt><trkpt lat="44.809336621823824" lon="9.187723005608115"><ele>452.0</ele><time>2026-04-19T17:46:23Z</time></trkpt><trkpt lat="44.80947569798945" lon="9.18793772487661"><ele>452.0</ele><time>2026-04-19T17:46:24Z</time></trkpt><trkpt lat="44.80959708375689" lon="9.18811970219249"><ele>452.0</ele><time>2026-04-19T17:46:25Z</time></trkpt><trkpt lat="44.809695992001075" lon="9.188264302872994"><ele>452.0</ele><time>2026-04-19T17:46:26Z</time></trkpt><trkpt lat="44.80979740736849" lon="9.188396872692731"><ele>446.75</ele><time>2026-04-19T17:46:27Z</time></trkpt><trkpt lat="44.80990050306935" lon="9.18849756713121"><ele>441.5</ele><time>2026-04-19T17:46:28Z</time></trkpt><trkpt lat="44.810035019147676" lon="9.188571341104977"><ele>436.25</ele><time>2026-04-19T17:46:29Z</time></trkpt><trkpt lat="44.81020150771904" lon="9.188609409829894"><ele>431.0</ele><time>2026-04-19T17:46:30Z</time></trkpt><trkpt lat="44.81038806402773" lon="9.188623759839833"><ele>431.0</ele><time>2026-04-19T17:46:31Z</time></trkpt><trkpt lat="44.81057307810421" lon="9.188631954037735"><ele>431.0</ele><time>2026-04-19T17:46:32Z</time></trkpt><trkpt lat="44.81073983888966" lon="9.188641363582201"><ele>431.0</ele><time>2026-04-19T17:46:33Z</time></trkpt><trkpt lat="44.810895582919834" lon="9.188639408465667"><ele>432.5</ele><time>2026-04-19T17:46:34Z</time></trkpt><trkpt lat="44.81104890470632" lon="9.188629020595286"><ele>434.0</ele><time>2026-04-19T17:46:35Z</time></trkpt><trkpt lat="44.811187280534654" lon="9.188629104907902"><ele>435.5</ele><time>2026-04-19T17:46:36Z</time></trkpt><trkpt lat="44.811325881263734" lon="9.188688231222878"><ele>437.0</ele><time>2026-04-19T17:46:37Z</time></trkpt><trkpt lat="44.81147417220392" lon="9.188797497012544"><ele>437.0</ele><time>2026-04-19T17:46:38Z</time></trkpt><trkpt lat="44.81164269081641" lon="9.188907258185006"><ele>437.0</ele><time>2026-04-19T17:46:39Z</time></trkpt><trkpt lat="44.811822237191414" lon="9.189024755859872"><ele>437.0</ele><time>2026-04-19T17:46:40Z</time></trkpt><trkpt lat="44.812014620149846" lon="9.189161667723438"><ele>432.3333333333333</ele><time>2026-04-19T17:46:41Z</time></trkpt><trkpt lat="44.81220162483057" lon="9.189297136483773"><ele>427.66666666666663</ele><time>2026-04-19T17:46:42Z</time></trkpt><trkpt lat="44.81237974457933" lon="9.189426739247704"><ele>423.0</ele><time>2026-04-19T17:46:43Z</time></trkpt><trkpt lat="44.8125484521576" lon="9.18955394535586"><ele>423.33333333333337</ele><time>2026-04-19T17:46:44Z</time></trkpt><trkpt lat="44.81270785916022" lon="9.189673937628397"><ele>423.6666666666667</ele><time>2026-04-19T17:46:45Z</time></trkpt><trkpt lat="44.81284990579107" lon="9.18978136019012"><ele>424.0</ele><time>2026-04-19T17:46:46Z</time></trkpt><trkpt lat="44.812973033761615" lon="9.18987170125843"><ele>423.0</ele><time>2026-04-19T17:46:47Z</time></trkpt><trkpt lat="44.81309261823858" lon="9.189935378381199"><ele>422.0</ele><time>2026-04-19T17:46:48Z</time></trkpt><trkpt lat="44.81322955700826" lon="9.189955815111137"><ele>421.0</ele><time>2026-04-19T17:46:49Z</time></trkpt><trkpt lat="44.81339294510611" lon="9.189937116789343"><ele>420.0</ele><time>2026-04-19T17:46:50Z</time></trkpt><trkpt lat="44.813571189308085" lon="9.189898563627816"><ele>420.0</ele><time>2026-04-19T17:46:51Z</time></trkpt><trkpt lat="44.81373499645789" lon="9.189861199956999"><ele>420.0</ele><time>2026-04-19T17:46:52Z</time></trkpt><trkpt lat="44.813889783124" lon="9.18981652773486"><ele>420.0</ele><time>2026-04-19T17:46:53Z</time></trkpt><trkpt lat="44.81403558901484" lon="9.189746616969224"><ele>420.0</ele><time>2026-04-19T17:46:54Z</time></trkpt><trkpt lat="44.81417001303652" lon="9.189659676105453"><ele>420.0</ele><time>2026-04-19T17:46:55Z</time></trkpt><trkpt lat="44.81430097601157" lon="9.189576480882744"><ele>420.0</ele><time>2026-04-19T17:46:56Z</time></trkpt><trkpt lat="44.81443131691051" lon="9.189516596111627"><ele>420.0</ele><time>2026-04-19T17:46:57Z</time></trkpt><trkpt lat="44.814545517765254" lon="9.18942915834093"><ele>419.66666666666663</ele><time>2026-04-19T17:46:58Z</time></trkpt><trkpt lat="44.81466713501018" lon="9.189283423786737"><ele>419.3333333333333</ele><time>2026-04-19T17:46:59Z</time></trkpt><trkpt lat="44.8148062187935" lon="9.18909967358384"><ele>419.0</ele><time>2026-04-19T17:47:00Z</time></trkpt><trkpt lat="44.81495816195527" lon="9.188917648145154"><ele>418.66666666666663</ele><time>2026-04-19T17:47:01Z</time></trkpt><trkpt lat="44.81510302212653" lon="9.188766082898676"><ele>418.33333333333337</ele><time>2026-04-19T17:47:02Z</time></trkpt><trkpt lat="44.81524112604556" lon="9.18862137331428"><ele>418.0</ele><time>2026-04-19T17:47:03Z</time></trkpt><trkpt lat="44.81537219970048" lon="9.18849734619319"><ele>415.25</ele><time>2026-04-19T17:47:04Z</time></trkpt><trkpt lat="44.81550984922126" lon="9.188398262242902"><ele>412.5</ele><time>2026-04-19T17:47:05Z</time></trkpt><trkpt lat="44.81565176809722" lon="9.188332320153991"><ele>409.75</ele><time>2026-04-19T17:47:06Z</time></trkpt><trkpt lat="44.815789172999835" lon="9.188292276653675"><ele>407.0</ele><time>2026-04-19T17:47:07Z</time></trkpt><trkpt lat="44.81592498857748" lon="9.188281608402034"><ele>407.5</ele><time>2026-04-19T17:47:08Z</time></trkpt><trkpt lat="44.81606824825509" lon="9.188311931443423"><ele>408.0</ele><time>2026-04-19T17:47:09Z</time></trkpt><trkpt lat="44.81619915069738" lon="9.188310546702915"><ele>408.5</ele><time>2026-04-19T17:47:10Z</time></trkpt><trkpt lat="44.8163534040304" lon="9.188252944462327"><ele>409.0</ele><time>2026-04-19T17:47:11Z</time></trkpt><trkpt lat="44.816521299607764" lon="9.188162270652589"><ele>406.0</ele><time>2026-04-19T17:47:12Z</time></trkpt><trkpt lat="44.816670067473034" lon="9.188086646180817"><ele>403.0</ele><time>2026-04-19T17:47:13Z</time></trkpt><trkpt lat="44.816813313514544" lon="9.188036707054934"><ele>400.0</ele><time>2026-04-19T17:47:14Z</time></trkpt><trkpt lat="44.816955630663216" lon="9.188018454026885"><ele>397.0</ele><time>2026-04-19T17:47:15Z</time></trkpt><trkpt lat="44.81709037239851" lon="9.188028260502536"><ele>397.0</ele><time>2026-04-19T17:47:16Z</time></trkpt><trkpt lat="44.81721817558822" lon="9.188049232979472"><ele>397.0</ele><time>2026-04-19T17:47:17Z</time></trkpt><trkpt lat="44.81734136537142" lon="9.188070874694064"><ele>397.0</ele><time>2026-04-19T17:47:18Z</time></trkpt><trkpt lat="44.81745904653348" lon="9.188094766487346"><ele>397.0</ele><time>2026-04-19T17:47:19Z</time></trkpt><trkpt lat="44.81757301775466" lon="9.188105543638247"><ele>398.25</ele><time>2026-04-19T17:47:20Z</time></trkpt><trkpt lat="44.817672370450104" lon="9.188090866980362"><ele>399.5</ele><time>2026-04-19T17:47:21Z</time></trkpt><trkpt lat="44.81777635310631" lon="9.18804308454858"><ele>400.75</ele><time>2026-04-19T17:47:22Z</time></trkpt><trkpt lat="44.81789222144706" lon="9.187953488822613"><ele>402.0</ele><time>2026-04-19T17:47:23Z</time></trkpt><trkpt lat="44.818013002163234" lon="9.18780118182193"><ele>402.0</ele><time>2026-04-19T17:47:24Z</time></trkpt><trkpt lat="44.818122039163015" lon="9.187652469656026"><ele>402.0</ele><time>2026-04-19T17:47:25Z</time></trkpt><trkpt lat="44.818229256667735" lon="9.18753973027639"><ele>402.0</ele><time>2026-04-19T17:47:26Z</time></trkpt><trkpt lat="44.818338978569656" lon="9.187460835438007"><ele>402.0</ele><time>2026-04-19T17:47:27Z</time></trkpt><trkpt lat="44.81844724253269" lon="9.187422799994897"><ele>400.5</ele><time>2026-04-19T17:47:28Z</time></trkpt><trkpt lat="44.81856271192006" lon="9.187443578574157"><ele>399.0</ele><time>2026-04-19T17:47:29Z</time></trkpt><trkpt lat="44.8186963187225" lon="9.187501242019174"><ele>397.5</ele><time>2026-04-19T17:47:30Z</time></trkpt><trkpt lat="44.81883881271617" lon="9.18756676440807"><ele>396.0</ele><time>2026-04-19T17:47:31Z</time></trkpt><trkpt lat="44.81895109254032" lon="9.18761633328276"><ele>396.0</ele><time>2026-04-19T17:47:32Z</time></trkpt><trkpt lat="44.81904796535462" lon="9.18766918708417"><ele>396.0</ele><time>2026-04-19T17:47:33Z</time></trkpt><trkpt lat="44.81913202823776" lon="9.187758033721204"><ele>396.0</ele><time>2026-04-19T17:47:34Z</time></trkpt><trkpt lat="44.81919656257056" lon="9.187869139827226"><ele>396.0</ele><time>2026-04-19T17:47:35Z</time></trkpt><trkpt lat="44.81924782259998" lon="9.188013015830471"><ele>396.0</ele><time>2026-04-19T17:47:36Z</time></trkpt><trkpt lat="44.819253998829296" lon="9.188191614751997"><ele>398.66666666666663</ele><time>2026-04-19T17:47:37Z</time></trkpt><trkpt lat="44.81926817561328" lon="9.18839135212744"><ele>401.3333333333333</ele><time>2026-04-19T17:47:38Z</time></trkpt><trkpt lat="44.81927484295641" lon="9.188631492478804"><ele>404.0</ele><time>2026-04-19T17:47:39Z</time></trkpt><trkpt lat="44.81928272812936" lon="9.188905368021842"><ele>405.0</ele><time>2026-04-19T17:47:40Z</time></trkpt><trkpt lat="44.819294442832856" lon="9.189168640863656"><ele>406.0</ele><time>2026-04-19T17:47:41Z</time></trkpt><trkpt lat="44.819308180733465" lon="9.189413111353213"><ele>407.0</ele><time>2026-04-19T17:47:42Z</time></trkpt><trkpt lat="44.81932065546754" lon="9.189647355689397"><ele>402.3333333333333</ele><time>2026-04-19T17:47:43Z</time></trkpt><trkpt lat="44.81933251211624" lon="9.189869994033495"><ele>397.66666666666663</ele><time>2026-04-19T17:47:44Z</time></trkpt><trkpt lat="44.81934281053561" lon="9.19008690528275"><ele>393.0</ele><time>2026-04-19T17:47:45Z</time></trkpt><trkpt lat="44.8193492817372" lon="9.19031986856001"><ele>393.0</ele><time>2026-04-19T17:47:46Z</time></trkpt><trkpt lat="44.81935943043848" lon="9.190565087255571"><ele>393.0</ele><time>2026-04-19T17:47:47Z</time></trkpt><trkpt lat="44.81937599618719" lon="9.190788138543555"><ele>393.0</ele><time>2026-04-19T17:47:48Z</time></trkpt><trkpt lat="44.81939885564387" lon="9.191000334532674"><ele>393.5</ele><time>2026-04-19T17:47:49Z</time></trkpt><trkpt lat="44.81942935259667" lon="9.191205249084431"><ele>394.0</ele><time>2026-04-19T17:47:50Z</time></trkpt><trkpt lat="44.819470108554334" lon="9.191395461713858"><ele>394.5</ele><time>2026-04-19T17:47:51Z</time></trkpt><trkpt lat="44.8195303788438" lon="9.191588777441808"><ele>395.0</ele><time>2026-04-19T17:47:52Z</time></trkpt><trkpt lat="44.819607011844" lon="9.191784044709312"><ele>395.75</ele><time>2026-04-19T17:47:53Z</time></trkpt><trkpt lat="44.81967017323673" lon="9.191963925376177"><ele>396.5</ele><time>2026-04-19T17:47:54Z</time></trkpt><trkpt lat="44.819719654651074" lon="9.19213814472792"><ele>397.25</ele><time>2026-04-19T17:47:55Z</time></trkpt><trkpt lat="44.81974981579781" lon="9.192316824155856"><ele>398.0</ele><time>2026-04-19T17:47:56Z</time></trkpt><trkpt lat="44.819768898787316" lon="9.192523254757784"><ele>398.66666666666663</ele><time>2026-04-19T17:47:57Z</time></trkpt><trkpt lat="44.81979152927484" lon="9.192751273536413"><ele>399.33333333333337</ele><time>2026-04-19T17:47:58Z</time></trkpt><trkpt lat="44.81981541627609" lon="9.192991952616497"><ele>400.0</ele><time>2026-04-19T17:47:59Z</time></trkpt><trkpt lat="44.81984336841621" lon="9.193247363320062"><ele>400.6666666666667</ele><time>2026-04-19T17:48:00Z</time></trkpt><trkpt lat="44.8198746659253" lon="9.193480887062817"><ele>401.33333333333337</ele><time>2026-04-19T17:48:01Z</time></trkpt><trkpt lat="44.819928753855734" lon="9.193692346826316"><ele>402.0</ele><time>2026-04-19T17:48:02Z</time></trkpt><trkpt lat="44.82000149602682" lon="9.193875859930056"><ele>403.66666666666663</ele><time>2026-04-19T17:48:03Z</time></trkpt><trkpt lat="44.820030769263255" lon="9.194071524388285"><ele>405.3333333333333</ele><time>2026-04-19T17:48:04Z</time></trkpt><trkpt lat="44.82001208783528" lon="9.194278967617038"><ele>407.0</ele><time>2026-04-19T17:48:05Z</time></trkpt><trkpt lat="44.82002131254462" lon="9.194514158039917"><ele>407.0</ele><time>2026-04-19T17:48:06Z</time></trkpt><trkpt lat="44.819998251261104" lon="9.194727125471806"><ele>407.0</ele><time>2026-04-19T17:48:07Z</time></trkpt><trkpt lat="44.8200005545252" lon="9.194922622542318"><ele>407.0</ele><time>2026-04-19T17:48:08Z</time></trkpt><trkpt lat="44.820014513575074" lon="9.195094118897106"><ele>407.0</ele><time>2026-04-19T17:48:09Z</time></trkpt><trkpt lat="44.820053689723274" lon="9.19524220747671"><ele>407.16666666666663</ele><time>2026-04-19T17:48:10Z</time></trkpt><trkpt lat="44.82013236344559" lon="9.195329818569181"><ele>407.3333333333333</ele><time>2026-04-19T17:48:11Z</time></trkpt><trkpt lat="44.820209224995224" lon="9.195395287487264"><ele>407.5</ele><time>2026-04-19T17:48:12Z</time></trkpt><trkpt lat="44.82028541044843" lon="9.195425559822947"><ele>407.66666666666663</ele><time>2026-04-19T17:48:13Z</time></trkpt><trkpt lat="44.82035588724021" lon="9.195473728682924"><ele>407.8333333333333</ele><time>2026-04-19T17:48:14Z</time></trkpt><trkpt lat="44.820452098963976" lon="9.195498179997251"><ele>408.0</ele><time>2026-04-19T17:48:15.001Z</time></trkpt><trkpt lat="44.820564529806006" lon="9.195526595501272"><ele>406.25</ele><time>2026-04-19T17:48:16Z</time></trkpt><trkpt lat="44.82069489812681" lon="9.195563540783219"><ele>404.5</ele><time>2026-04-19T17:48:17Z</time></trkpt><trkpt lat="44.82083134425007" lon="9.195590376734247"><ele>402.75</ele><time>2026-04-19T17:48:18Z</time></trkpt><trkpt lat="44.82096085441111" lon="9.195633442151761"><ele>401.0</ele><time>2026-04-19T17:48:19Z</time></trkpt><trkpt lat="44.821084028859815" lon="9.195670197571905"><ele>400.75</ele><time>2026-04-19T17:48:20Z</time></trkpt><trkpt lat="44.82120473456224" lon="9.195731191123459"><ele>400.5</ele><time>2026-04-19T17:48:21Z</time></trkpt><trkpt lat="44.82132746137035" lon="9.19575186393162"><ele>400.25</ele><time>2026-04-19T17:48:22Z</time></trkpt><trkpt lat="44.821443040517195" lon="9.195794396981666"><ele>400.0</ele><time>2026-04-19T17:48:23Z</time></trkpt><trkpt lat="44.821554187021945" lon="9.195831731106662"><ele>400.00000000000006</ele><time>2026-04-19T17:48:24Z</time></trkpt><trkpt lat="44.821658373675085" lon="9.195867481122404"><ele>400.0</ele><time>2026-04-19T17:48:25Z</time></trkpt><trkpt lat="44.8217503688354" lon="9.19590034446486"><ele>400.0</ele><time>2026-04-19T17:48:26Z</time></trkpt><trkpt lat="44.82183231450002" lon="9.195927861853395"><ele>400.0</ele><time>2026-04-19T17:48:27Z</time></trkpt><trkpt lat="44.82189605589169" lon="9.195947274388834"><ele>400.00000000000006</ele><time>2026-04-19T17:48:28Z</time></trkpt><trkpt lat="44.821966567729326" lon="9.195969577052113"><ele>400.0</ele><time>2026-04-19T17:48:30Z</time></trkpt><trkpt lat="44.82204632785688" lon="9.196006690476553"><ele>401.00000000000006</ele><time>2026-04-19T17:48:49Z</time></trkpt><trkpt lat="44.822126847930626" lon="9.19605477314497"><ele>402.0</ele><time>2026-04-19T17:48:51Z</time></trkpt><trkpt lat="44.822206685800396" lon="9.196099717251064"><ele>403.0</ele><time>2026-04-19T17:48:53Z</time></trkpt><trkpt lat="44.82227905993443" lon="9.196142059414415"><ele>404.0</ele><time>2026-04-19T17:48:55Z</time></trkpt><trkpt lat="44.822341353592364" lon="9.19617885766682"><ele>405.00000000000006</ele><time>2026-04-19T17:48:56Z</time></trkpt><trkpt lat="44.82244232728649" lon="9.196209432550411"><ele>406.0</ele><time>2026-04-19T17:48:57Z</time></trkpt><trkpt lat="44.82256597327021" lon="9.19628710769844"><ele>407.20000000000005</ele><time>2026-04-19T17:48:58Z</time></trkpt><trkpt lat="44.82268351217156" lon="9.196355427537636"><ele>408.40000000000003</ele><time>2026-04-19T17:48:59Z</time></trkpt><trkpt lat="44.82277640193366" lon="9.196413662628721"><ele>409.6</ele><time>2026-04-19T17:49:00Z</time></trkpt><trkpt lat="44.822857688605005" lon="9.196457988245385"><ele>410.8</ele><time>2026-04-19T17:49:01Z</time></trkpt><trkpt lat="44.82292884546658" lon="9.196500509401735"><ele>412.0</ele><time>2026-04-19T17:49:02Z</time></trkpt><trkpt lat="44.82299032738895" lon="9.196527379297667"><ele>412.00000000000006</ele><time>2026-04-19T17:49:03Z</time></trkpt><trkpt lat="44.823041743819424" lon="9.196587239281946"><ele>412.0</ele><time>2026-04-19T17:49:05Z</time></trkpt><trkpt lat="44.82309650376669" lon="9.196535929601653"><ele>412.0</ele><time>2026-04-19T17:49:09Z</time></trkpt><trkpt lat="44.82311420908281" lon="9.196414795234357"><ele>412.0</ele><time>2026-04-19T17:49:11Z</time></trkpt><trkpt lat="44.82315322648906" lon="9.196335475912115"><ele>412.00000000000006</ele><time>2026-04-19T17:49:12Z</time></trkpt><trkpt lat="44.823181983577975" lon="9.196203838866635"><ele>412.0</ele><time>2026-04-19T17:49:14Z</time></trkpt><trkpt lat="44.823191349541915" lon="9.196098807801237"><ele>412.0</ele><time>2026-04-19T17:49:16Z</time></trkpt><trkpt lat="44.82334994157449" lon="9.196115199749963"><ele>412.0</ele><time>2026-04-19T17:49:36Z</time></trkpt><trkpt lat="44.82340160341739" lon="9.19605938838547"><ele>412.0</ele><time>2026-04-19T17:50:05.001Z</time></trkpt><trkpt lat="44.823440381226966" lon="9.195977711308169"><ele>412.0</ele><time>2026-04-19T17:50:23Z</time></trkpt><trkpt lat="44.823380334154386" lon="9.196061000505072"><ele>412.0</ele><time>2026-04-19T17:52:12.001Z</time></trkpt></trkseg></trk></gpx>